UAE4PV OMDB-LIMC
Flight info
| Callsign | UAE4PV |
|---|---|
| Flight time | 7h 45m |
| Altitude | 33000 |
| Route | ANVIX L223 TARDI N629 BOTAM Y855 LAKLU/N0502F320 Q204 NALKI G652 TOKRA DCT ALROK DCT BOSOB/N0496F340 DCT ITRUX Y511 PMA Z712 WEJ L677 GESON Q777 RASDA DCT OTHON DCT VAXOS DCT RDS/N0481F360 UL609 MES DCT FSK DCT DISOR DCT LONTA UL608 DOLEV DCT VRANA DCT BAXON/N0486F370 DCT LOMED/N0421F180 M730 MIVKI T648 MEBUR |
| Aircraft | B77W/H-SDE1E2E3FGHIJ2J3J4J5M1RWXY/LB1D1 |
Departure
| Time | 2026-04-22 21:28 |
|---|---|
| Airport | Dubai International Airport (OMDB) |
Arrival
| Time | 2026-04-23 05:13 |
|---|---|
| Airport | Milan Malpensa International Airport (LIMC) |
| Time | Latitude | Longitude | Altitude | Speed | Heading |
|---|---|---|---|---|---|
| 2026-04-22 21:21 | 25.24346 | 55.37832 | 26 ft | 0 kts | 34° |
| 2026-04-22 21:24 | 25.24387 | 55.37862 | 27 ft | 15 kts | 34° |
| 2026-04-22 21:24 | 25.24474 | 55.37927 | 27 ft | 15 kts | 34° |
| 2026-04-22 21:24 | 25.24525 | 55.37965 | 27 ft | 7 kts | 34° |
| 2026-04-22 21:24 | 25.24564 | 55.37993 | 27 ft | 7 kts | 34° |
| 2026-04-22 21:25 | 25.24603 | 55.38021 | 27 ft | 7 kts | 34° |
| 2026-04-22 21:25 | 25.24619 | 55.38034 | 27 ft | 0 kts | 34° |
| 2026-04-22 21:25 | 25.24625 | 55.38038 | 27 ft | 5 kts | 34° |
| 2026-04-22 21:25 | 25.24669 | 55.38071 | 27 ft | 8 kts | 34° |
| 2026-04-22 21:26 | 25.24715 | 55.38104 | 27 ft | 8 kts | 34° |
| 2026-04-22 21:26 | 25.24763 | 55.38110 | 27 ft | 8 kts | 322° |
| 2026-04-22 21:26 | 25.24776 | 55.38087 | 27 ft | 0 kts | 300° |
| 2026-04-22 21:26 | 25.24837 | 55.37970 | 27 ft | 46 kts | 301° |
| 2026-04-22 21:27 | 25.25124 | 55.37454 | 27 ft | 110 kts | 301° |
| 2026-04-22 21:27 | 25.25625 | 55.36554 | 27 ft | 163 kts | 302° |
| 2026-04-22 21:27 | 25.26297 | 55.35361 | 57 ft | 196 kts | 302° |
| 2026-04-22 21:27 | 25.26998 | 55.34144 | 617 ft | 183 kts | 307° |
| 2026-04-22 21:28 | 25.27728 | 55.32937 | 894 ft | 199 kts | 303° |
| 2026-04-22 21:28 | 25.28471 | 55.31562 | 1073 ft | 218 kts | 303° |
| 2026-04-22 21:28 | 25.29145 | 55.30065 | 1591 ft | 216 kts | 283° |
| 2026-04-22 21:28 | 25.29092 | 55.28449 | 2054 ft | 211 kts | 251° |
| 2026-04-22 21:29 | 25.28538 | 55.26948 | 2468 ft | 210 kts | 242° |
| 2026-04-22 21:29 | 25.27918 | 55.25484 | 2916 ft | 212 kts | 242° |
| 2026-04-22 21:29 | 25.27257 | 55.23943 | 3047 ft | 230 kts | 240° |
| 2026-04-22 21:29 | 25.26553 | 55.22330 | 3417 ft | 235 kts | 240° |
| 2026-04-22 21:30 | 25.25846 | 55.20701 | 3931 ft | 236 kts | 241° |
| 2026-04-22 21:30 | 25.25148 | 55.19073 | 4528 ft | 233 kts | 241° |
| 2026-04-22 21:30 | 25.24306 | 55.17606 | 4927 ft | 230 kts | 217° |
| 2026-04-22 21:30 | 25.22907 | 55.16822 | 5358 ft | 227 kts | 188° |
| 2026-04-22 21:31 | 25.21337 | 55.16924 | 5777 ft | 230 kts | 161° |
| 2026-04-22 21:31 | 25.19937 | 55.17822 | 6070 ft | 243 kts | 135° |
| 2026-04-22 21:31 | 25.18906 | 55.19376 | 6197 ft | 260 kts | 126° |
| 2026-04-22 21:31 | 25.17920 | 55.21067 | 6513 ft | 271 kts | 125° |
| 2026-04-22 21:32 | 25.16873 | 55.22869 | 6968 ft | 278 kts | 125° |
| 2026-04-22 21:32 | 25.15816 | 55.24682 | 7475 ft | 283 kts | 126° |
| 2026-04-22 21:32 | 25.14737 | 55.26517 | 8005 ft | 287 kts | 126° |
| 2026-04-22 21:32 | 25.13636 | 55.28376 | 8486 ft | 292 kts | 126° |
| 2026-04-22 21:33 | 25.12529 | 55.30235 | 9016 ft | 295 kts | 126° |
| 2026-04-22 21:33 | 25.11392 | 55.32141 | 9561 ft | 299 kts | 126° |
| 2026-04-22 21:33 | 25.10293 | 55.34102 | 10013 ft | 304 kts | 119° |
| 2026-04-22 21:33 | 25.09402 | 55.36245 | 10475 ft | 310 kts | 115° |
| 2026-04-22 21:34 | 25.08550 | 55.38442 | 11023 ft | 313 kts | 116° |
| 2026-04-22 21:34 | 25.07669 | 55.40653 | 11600 ft | 317 kts | 116° |
| 2026-04-22 21:34 | 25.06778 | 55.42896 | 12150 ft | 323 kts | 115° |
| 2026-04-22 21:34 | 25.05879 | 55.45244 | 12370 ft | 344 kts | 114° |
| 2026-04-22 21:35 | 25.04938 | 55.47717 | 12546 ft | 364 kts | 114° |
| 2026-04-22 21:35 | 25.03924 | 55.50363 | 12705 ft | 385 kts | 114° |
| 2026-04-22 21:35 | 25.02852 | 55.53148 | 12969 ft | 402 kts | 114° |
| 2026-04-22 21:35 | 25.01685 | 55.55994 | 13425 ft | 412 kts | 118° |
| 2026-04-22 21:36 | 25.00241 | 55.58745 | 13967 ft | 417 kts | 122° |
| 2026-04-22 21:36 | 24.98724 | 55.61482 | 14597 ft | 419 kts | 122° |
| 2026-04-22 21:36 | 24.97208 | 55.64242 | 14851 ft | 423 kts | 122° |
| 2026-04-22 21:36 | 24.95689 | 55.67041 | 15142 ft | 428 kts | 122° |
| 2026-04-22 21:37 | 24.94178 | 55.69814 | 15858 ft | 427 kts | 123° |
| 2026-04-22 21:37 | 24.92487 | 55.72499 | 16590 ft | 427 kts | 127° |
| 2026-04-22 21:37 | 24.90711 | 55.75146 | 17209 ft | 432 kts | 128° |
| 2026-04-22 21:37 | 24.88912 | 55.77817 | 17799 ft | 436 kts | 127° |
| 2026-04-22 21:38 | 24.87106 | 55.80521 | 18399 ft | 440 kts | 127° |
| 2026-04-22 21:38 | 24.85296 | 55.83246 | 18920 ft | 443 kts | 127° |
| 2026-04-22 21:38 | 24.83469 | 55.85998 | 19480 ft | 446 kts | 127° |
| 2026-04-22 21:38 | 24.81613 | 55.88755 | 20008 ft | 450 kts | 127° |
| 2026-04-22 21:39 | 24.79733 | 55.91532 | 20517 ft | 454 kts | 128° |
| 2026-04-22 21:39 | 24.77743 | 55.94249 | 21032 ft | 458 kts | 133° |
| 2026-04-22 21:39 | 24.75522 | 55.96696 | 21538 ft | 459 kts | 139° |
| 2026-04-22 21:39 | 24.73144 | 55.99072 | 22032 ft | 463 kts | 139° |
| 2026-04-22 21:40 | 24.70761 | 56.01475 | 22524 ft | 467 kts | 139° |
| 2026-04-22 21:40 | 24.68375 | 56.03920 | 23005 ft | 471 kts | 139° |
| 2026-04-22 21:40 | 24.65976 | 56.06387 | 23448 ft | 474 kts | 139° |
| 2026-04-22 21:40 | 24.63546 | 56.08878 | 23773 ft | 480 kts | 139° |
| 2026-04-22 21:41 | 24.61092 | 56.11388 | 24153 ft | 483 kts | 139° |
| 2026-04-22 21:41 | 24.58631 | 56.13910 | 24608 ft | 485 kts | 139° |
| 2026-04-22 21:41 | 24.56230 | 56.16526 | 25059 ft | 488 kts | 134° |
| 2026-04-22 21:41 | 24.54000 | 56.19346 | 25473 ft | 490 kts | 132° |
| 2026-04-22 21:42 | 24.51816 | 56.22168 | 25837 ft | 494 kts | 132° |
| 2026-04-22 21:42 | 24.49586 | 56.25051 | 26198 ft | 497 kts | 132° |
| 2026-04-22 21:42 | 24.47339 | 56.27942 | 26586 ft | 499 kts | 133° |
| 2026-04-22 21:42 | 24.45074 | 56.30839 | 26969 ft | 501 kts | 132° |
| 2026-04-22 21:43 | 24.42794 | 56.33741 | 27352 ft | 503 kts | 133° |
| 2026-04-22 21:43 | 24.40501 | 56.36652 | 27725 ft | 505 kts | 133° |
| 2026-04-22 21:43 | 24.38198 | 56.39575 | 28060 ft | 508 kts | 133° |
| 2026-04-22 21:43 | 24.35882 | 56.42513 | 28382 ft | 510 kts | 133° |
| 2026-04-22 21:44 | 24.33554 | 56.45465 | 28692 ft | 513 kts | 133° |
| 2026-04-22 21:44 | 24.31216 | 56.48429 | 28997 ft | 515 kts | 133° |
| 2026-04-22 21:44 | 24.28957 | 56.51420 | 29284 ft | 518 kts | 129° |
| 2026-04-22 21:44 | 24.26817 | 56.54614 | 29550 ft | 521 kts | 128° |
| 2026-04-22 21:45 | 24.24702 | 56.57839 | 29827 ft | 522 kts | 127° |
| 2026-04-22 21:45 | 24.22587 | 56.61075 | 30162 ft | 522 kts | 127° |
| 2026-04-22 21:45 | 24.20466 | 56.64305 | 30466 ft | 522 kts | 127° |
| 2026-04-22 21:45 | 24.18335 | 56.67529 | 30739 ft | 523 kts | 128° |
| 2026-04-22 21:46 | 24.16194 | 56.70751 | 30989 ft | 524 kts | 128° |
| 2026-04-22 21:46 | 24.14049 | 56.73972 | 31242 ft | 524 kts | 128° |
| 2026-04-22 21:46 | 24.11927 | 56.77158 | 31509 ft | 525 kts | 128° |
| 2026-04-22 21:46 | 24.09777 | 56.80384 | 31765 ft | 526 kts | 128° |
| 2026-04-22 21:47 | 24.05104 | 56.86532 | 31858 ft | 524 kts | 142° |
| 2026-04-22 21:47 | 24.02129 | 56.88796 | 31879 ft | 519 kts | 154° |
| 2026-04-22 21:47 | 23.98880 | 56.90438 | 31883 ft | 514 kts | 165° |
| 2026-04-22 21:48 | 23.92009 | 56.92265 | 31894 ft | 509 kts | 171° |
| 2026-04-22 21:48 | 23.85148 | 56.93996 | 31904 ft | 511 kts | 170° |
| 2026-04-22 21:49 | 23.78226 | 56.95827 | 31892 ft | 513 kts | 169° |
| 2026-04-22 21:49 | 23.71288 | 56.97694 | 31924 ft | 514 kts | 169° |
| 2026-04-22 21:50 | 23.64332 | 56.99562 | 31918 ft | 515 kts | 169° |
| 2026-04-22 21:50 | 23.57483 | 57.01395 | 31915 ft | 515 kts | 169° |
| 2026-04-22 21:51 | 23.50522 | 57.03254 | 31947 ft | 515 kts | 169° |
| 2026-04-22 21:52 | 23.40046 | 57.05774 | 31944 ft | 511 kts | 178° |
| 2026-04-22 21:52 | 23.33006 | 57.05664 | 31975 ft | 504 kts | 191° |
| 2026-04-22 21:53 | 23.26233 | 57.04130 | 31970 ft | 500 kts | 197° |
| 2026-04-22 21:53 | 23.19444 | 57.02450 | 31975 ft | 500 kts | 196° |
| 2026-04-22 21:54 | 23.12642 | 57.00839 | 31978 ft | 501 kts | 196° |
| 2026-04-22 21:54 | 23.05827 | 56.99252 | 31979 ft | 501 kts | 196° |
| 2026-04-22 21:55 | 22.99027 | 56.97660 | 31971 ft | 501 kts | 196° |
| 2026-04-22 21:55 | 22.92264 | 56.96046 | 31980 ft | 501 kts | 196° |
| 2026-04-22 21:56 | 22.85558 | 56.94175 | 31956 ft | 491 kts | 209° |
| 2026-04-22 21:56 | 22.82708 | 56.92223 | 31974 ft | 482 kts | 225° |
| 2026-04-22 21:56 | 22.80424 | 56.89613 | 31973 ft | 475 kts | 238° |
| 2026-04-22 21:57 | 22.77306 | 56.83378 | 31971 ft | 471 kts | 246° |
| 2026-04-22 21:57 | 22.74387 | 56.77040 | 31959 ft | 475 kts | 246° |
| 2026-04-22 21:58 | 22.71368 | 56.70659 | 31944 ft | 477 kts | 245° |
| 2026-04-22 21:58 | 22.68310 | 56.64292 | 31943 ft | 476 kts | 245° |
| 2026-04-22 21:59 | 22.65250 | 56.57942 | 31932 ft | 475 kts | 245° |
| 2026-04-22 21:59 | 22.62202 | 56.51615 | 31918 ft | 473 kts | 245° |
| 2026-04-22 22:00 | 22.59183 | 56.45349 | 31922 ft | 472 kts | 245° |
| 2026-04-22 22:00 | 22.56145 | 56.39052 | 31918 ft | 472 kts | 245° |
| 2026-04-22 22:01 | 22.53102 | 56.32763 | 31914 ft | 472 kts | 245° |
| 2026-04-22 22:01 | 22.50050 | 56.26478 | 31909 ft | 472 kts | 245° |
| 2026-04-22 22:02 | 22.46996 | 56.20192 | 31913 ft | 472 kts | 245° |
| 2026-04-22 22:02 | 22.43961 | 56.13948 | 31911 ft | 472 kts | 245° |
| 2026-04-22 22:03 | 22.40903 | 56.07665 | 31898 ft | 472 kts | 245° |
| 2026-04-22 22:03 | 22.37844 | 56.01388 | 31900 ft | 472 kts | 245° |
| 2026-04-22 22:04 | 22.34806 | 55.95194 | 31893 ft | 473 kts | 245° |
| 2026-04-22 22:04 | 22.31721 | 55.88926 | 31893 ft | 473 kts | 245° |
| 2026-04-22 22:05 | 22.28658 | 55.82702 | 31884 ft | 473 kts | 245° |
| 2026-04-22 22:05 | 22.25571 | 55.76435 | 31874 ft | 472 kts | 245° |
| 2026-04-22 22:06 | 22.22490 | 55.70178 | 31879 ft | 472 kts | 245° |
| 2026-04-22 22:06 | 22.19414 | 55.63931 | 31866 ft | 471 kts | 245° |
| 2026-04-22 22:07 | 22.16715 | 55.57585 | 31872 ft | 466 kts | 255° |
| 2026-04-22 22:07 | 22.15194 | 55.50831 | 31868 ft | 462 kts | 265° |
| 2026-04-22 22:08 | 22.14602 | 55.43961 | 31859 ft | 460 kts | 267° |
| 2026-04-22 22:08 | 22.14087 | 55.37087 | 31853 ft | 460 kts | 267° |
| 2026-04-22 22:09 | 22.13550 | 55.30258 | 31848 ft | 460 kts | 267° |
| 2026-04-22 22:09 | 22.12989 | 55.23390 | 31835 ft | 460 kts | 267° |
| 2026-04-22 22:10 | 22.12416 | 55.16530 | 31851 ft | 459 kts | 267° |
| 2026-04-22 22:10 | 22.11840 | 55.09671 | 31841 ft | 459 kts | 267° |
| 2026-04-22 22:11 | 22.11262 | 55.02814 | 31826 ft | 459 kts | 267° |
| 2026-04-22 22:11 | 22.10694 | 54.96081 | 31829 ft | 458 kts | 267° |
| 2026-04-22 22:12 | 22.10113 | 54.89238 | 31827 ft | 459 kts | 267° |
| 2026-04-22 22:12 | 22.09528 | 54.82392 | 31814 ft | 458 kts | 267° |
| 2026-04-22 22:13 | 22.08941 | 54.75563 | 31836 ft | 458 kts | 267° |
| 2026-04-22 22:13 | 22.08351 | 54.68726 | 31828 ft | 458 kts | 267° |
| 2026-04-22 22:14 | 22.07763 | 54.61937 | 31818 ft | 458 kts | 267° |
| 2026-04-22 22:14 | 22.07168 | 54.55102 | 31831 ft | 458 kts | 267° |
| 2026-04-22 22:15 | 22.06569 | 54.48263 | 31816 ft | 458 kts | 267° |
| 2026-04-22 22:15 | 22.05969 | 54.41436 | 31812 ft | 457 kts | 267° |
| 2026-04-22 22:16 | 22.05371 | 54.34674 | 31821 ft | 456 kts | 267° |
| 2026-04-22 22:16 | 22.04769 | 54.27881 | 31816 ft | 455 kts | 267° |
| 2026-04-22 22:17 | 22.04163 | 54.21097 | 31825 ft | 454 kts | 267° |
| 2026-04-22 22:17 | 22.03556 | 54.14322 | 31809 ft | 454 kts | 267° |
| 2026-04-22 22:18 | 22.02947 | 54.07554 | 31823 ft | 454 kts | 267° |
| 2026-04-22 22:18 | 22.02340 | 54.00833 | 31815 ft | 454 kts | 267° |
| 2026-04-22 22:19 | 22.01730 | 53.94133 | 31827 ft | 453 kts | 267° |
| 2026-04-22 22:19 | 22.01114 | 53.87378 | 31818 ft | 453 kts | 267° |
| 2026-04-22 22:20 | 22.00495 | 53.80632 | 31818 ft | 452 kts | 267° |
| 2026-04-22 22:20 | 21.99879 | 53.73948 | 31815 ft | 452 kts | 267° |
| 2026-04-22 22:21 | 21.99256 | 53.67208 | 31821 ft | 452 kts | 267° |
| 2026-04-22 22:21 | 21.98630 | 53.60477 | 31809 ft | 451 kts | 267° |
| 2026-04-22 22:22 | 21.98002 | 53.53746 | 31813 ft | 451 kts | 267° |
| 2026-04-22 22:22 | 21.97372 | 53.47021 | 31813 ft | 451 kts | 267° |
| 2026-04-22 22:23 | 21.96742 | 53.40336 | 31812 ft | 452 kts | 266° |
| 2026-04-22 22:23 | 21.96105 | 53.33606 | 31813 ft | 452 kts | 266° |
| 2026-04-22 22:24 | 21.95466 | 53.26876 | 31814 ft | 452 kts | 266° |
| 2026-04-22 22:24 | 21.94823 | 53.20147 | 31811 ft | 451 kts | 266° |
| 2026-04-22 22:25 | 21.94184 | 53.13472 | 31802 ft | 451 kts | 266° |
| 2026-04-22 22:25 | 21.93537 | 53.06753 | 31806 ft | 450 kts | 266° |
| 2026-04-22 22:26 | 21.92889 | 53.00048 | 31801 ft | 450 kts | 266° |
| 2026-04-22 22:26 | 21.92245 | 52.93415 | 31806 ft | 450 kts | 266° |
| 2026-04-22 22:27 | 21.91597 | 52.86765 | 31804 ft | 449 kts | 266° |
| 2026-04-22 22:27 | 21.90943 | 52.80084 | 31803 ft | 449 kts | 266° |
| 2026-04-22 22:28 | 21.90394 | 52.73403 | 31810 ft | 446 kts | 271° |
| 2026-04-22 22:28 | 21.90722 | 52.66759 | 31808 ft | 444 kts | 278° |
| 2026-04-22 22:29 | 21.91823 | 52.60282 | 31804 ft | 442 kts | 282° |
| 2026-04-22 22:29 | 21.93051 | 52.53789 | 31811 ft | 443 kts | 282° |
| 2026-04-22 22:30 | 21.94269 | 52.47276 | 31806 ft | 443 kts | 282° |
| 2026-04-22 22:30 | 21.95470 | 52.40761 | 31807 ft | 443 kts | 282° |
| 2026-04-22 22:31 | 21.96654 | 52.34291 | 31808 ft | 443 kts | 282° |
| 2026-04-22 22:31 | 21.97843 | 52.27769 | 31802 ft | 443 kts | 282° |
| 2026-04-22 22:32 | 21.99028 | 52.21254 | 31806 ft | 443 kts | 282° |
| 2026-04-22 22:32 | 22.00210 | 52.14740 | 31807 ft | 443 kts | 282° |
| 2026-04-22 22:33 | 22.01380 | 52.08281 | 31806 ft | 442 kts | 282° |
| 2026-04-22 22:33 | 22.02555 | 52.01778 | 31805 ft | 442 kts | 281° |
| 2026-04-22 22:34 | 22.03714 | 51.95345 | 31800 ft | 442 kts | 281° |
| 2026-04-22 22:34 | 22.04883 | 51.88850 | 31804 ft | 441 kts | 281° |
| 2026-04-22 22:35 | 22.06040 | 51.82399 | 31804 ft | 441 kts | 281° |
| 2026-04-22 22:35 | 22.07202 | 51.75906 | 31806 ft | 441 kts | 281° |
| 2026-04-22 22:36 | 22.08361 | 51.69416 | 31812 ft | 441 kts | 281° |
| 2026-04-22 22:36 | 22.09517 | 51.62928 | 31808 ft | 441 kts | 281° |
| 2026-04-22 22:37 | 22.10662 | 51.56483 | 31807 ft | 440 kts | 281° |
| 2026-04-22 22:37 | 22.11812 | 51.50000 | 31817 ft | 440 kts | 281° |
| 2026-04-22 22:38 | 22.12959 | 51.43517 | 31827 ft | 440 kts | 281° |
| 2026-04-22 22:38 | 22.14104 | 51.37029 | 31822 ft | 441 kts | 281° |
| 2026-04-22 22:39 | 22.15239 | 51.30577 | 31812 ft | 441 kts | 281° |
| 2026-04-22 22:39 | 22.16379 | 51.24089 | 31820 ft | 440 kts | 281° |
| 2026-04-22 22:40 | 22.17516 | 51.17595 | 31826 ft | 440 kts | 281° |
| 2026-04-22 22:40 | 22.18650 | 51.11105 | 31826 ft | 440 kts | 281° |
| 2026-04-22 22:41 | 22.19775 | 51.04655 | 31827 ft | 440 kts | 281° |
| 2026-04-22 22:41 | 22.20893 | 50.98225 | 31825 ft | 440 kts | 281° |
| 2026-04-22 22:42 | 22.22020 | 50.91732 | 31827 ft | 440 kts | 281° |
| 2026-04-22 22:42 | 22.23144 | 50.85238 | 31837 ft | 440 kts | 280° |
| 2026-04-22 22:43 | 22.24258 | 50.78786 | 31829 ft | 440 kts | 280° |
| 2026-04-22 22:43 | 22.25377 | 50.72287 | 31827 ft | 440 kts | 280° |
| 2026-04-22 22:44 | 22.26494 | 50.65788 | 31830 ft | 440 kts | 280° |
| 2026-04-22 22:44 | 22.27607 | 50.59293 | 31833 ft | 440 kts | 280° |
| 2026-04-22 22:45 | 22.28709 | 50.52844 | 31828 ft | 440 kts | 280° |
| 2026-04-22 22:45 | 22.29817 | 50.46349 | 31832 ft | 440 kts | 280° |
| 2026-04-22 22:46 | 22.30920 | 50.39861 | 31833 ft | 439 kts | 280° |
| 2026-04-22 22:46 | 22.32021 | 50.33375 | 31829 ft | 439 kts | 280° |
| 2026-04-22 22:47 | 22.33112 | 50.26932 | 31837 ft | 439 kts | 280° |
| 2026-04-22 22:47 | 22.34208 | 50.20438 | 31835 ft | 439 kts | 280° |
| 2026-04-22 22:48 | 22.35300 | 50.13949 | 31839 ft | 439 kts | 280° |
| 2026-04-22 22:48 | 22.36389 | 50.07468 | 31838 ft | 439 kts | 280° |
| 2026-04-22 22:49 | 22.37476 | 50.00983 | 31834 ft | 439 kts | 280° |
| 2026-04-22 22:49 | 22.38542 | 49.94604 | 31831 ft | 438 kts | 279° |
| 2026-04-22 22:50 | 22.39623 | 49.88123 | 31834 ft | 438 kts | 279° |
| 2026-04-22 22:50 | 22.40700 | 49.81645 | 31835 ft | 438 kts | 279° |
| 2026-04-22 22:51 | 22.41775 | 49.75163 | 31835 ft | 438 kts | 279° |
| 2026-04-22 22:51 | 22.42839 | 49.68734 | 31838 ft | 437 kts | 279° |
| 2026-04-22 22:52 | 22.43906 | 49.62265 | 31835 ft | 437 kts | 279° |
| 2026-04-22 22:52 | 22.44971 | 49.55799 | 31836 ft | 437 kts | 279° |
| 2026-04-22 22:53 | 22.46032 | 49.49336 | 31828 ft | 436 kts | 279° |
| 2026-04-22 22:53 | 22.47082 | 49.42921 | 31832 ft | 436 kts | 279° |
| 2026-04-22 22:54 | 22.48137 | 49.36462 | 31830 ft | 436 kts | 279° |
| 2026-04-22 22:54 | 22.49190 | 49.30003 | 31823 ft | 436 kts | 279° |
| 2026-04-22 22:55 | 22.50238 | 49.23550 | 31846 ft | 436 kts | 279° |
| 2026-04-22 22:55 | 22.51800 | 49.13908 | 31835 ft | 436 kts | 279° |
| 2026-04-22 22:56 | 22.52841 | 49.07455 | 31824 ft | 435 kts | 279° |
| 2026-04-22 22:56 | 22.53879 | 49.01012 | 31832 ft | 434 kts | 279° |
| 2026-04-22 22:57 | 22.54902 | 48.94642 | 31838 ft | 434 kts | 279° |
| 2026-04-22 22:57 | 22.55924 | 48.88258 | 31835 ft | 434 kts | 279° |
| 2026-04-22 22:58 | 22.56952 | 48.81826 | 31841 ft | 434 kts | 279° |
| 2026-04-22 22:58 | 22.57976 | 48.75397 | 31832 ft | 434 kts | 279° |
| 2026-04-22 22:59 | 22.58999 | 48.68960 | 31850 ft | 434 kts | 279° |
| 2026-04-22 22:59 | 22.60013 | 48.62566 | 31840 ft | 434 kts | 279° |
| 2026-04-22 23:00 | 22.61030 | 48.56129 | 31838 ft | 434 kts | 279° |
| 2026-04-22 23:00 | 22.62044 | 48.49698 | 31841 ft | 433 kts | 279° |
| 2026-04-22 23:01 | 22.63055 | 48.43265 | 31831 ft | 433 kts | 279° |
| 2026-04-22 23:01 | 22.64055 | 48.36887 | 31844 ft | 433 kts | 279° |
| 2026-04-22 23:02 | 22.65059 | 48.30468 | 31841 ft | 433 kts | 279° |
| 2026-04-22 23:02 | 22.66061 | 48.24043 | 31839 ft | 433 kts | 279° |
| 2026-04-22 23:03 | 22.67060 | 48.17621 | 31854 ft | 433 kts | 279° |
| 2026-04-22 23:03 | 22.68052 | 48.11226 | 32092 ft | 434 kts | 279° |
| 2026-04-22 23:04 | 22.68550 | 48.08012 | 32481 ft | 431 kts | 279° |
| 2026-04-22 23:04 | 22.69040 | 48.04827 | 32910 ft | 427 kts | 278° |
| 2026-04-22 23:04 | 22.69410 | 48.01654 | 33301 ft | 423 kts | 275° |
| 2026-04-22 23:04 | 22.69670 | 47.98573 | 33639 ft | 421 kts | 275° |
| 2026-04-22 23:05 | 22.69926 | 47.95413 | 33778 ft | 423 kts | 275° |
| 2026-04-22 23:05 | 22.70182 | 47.92231 | 33826 ft | 424 kts | 275° |
| 2026-04-22 23:05 | 22.70694 | 47.85935 | 33846 ft | 420 kts | 275° |
| 2026-04-22 23:06 | 22.71210 | 47.79651 | 33846 ft | 418 kts | 275° |
| 2026-04-22 23:06 | 22.71727 | 47.73376 | 33863 ft | 418 kts | 275° |
| 2026-04-22 23:07 | 22.72240 | 47.67111 | 33864 ft | 418 kts | 275° |
| 2026-04-22 23:07 | 22.72752 | 47.60832 | 33870 ft | 419 kts | 275° |
| 2026-04-22 23:08 | 22.73259 | 47.54580 | 33872 ft | 420 kts | 275° |
| 2026-04-22 23:08 | 22.73768 | 47.48278 | 33873 ft | 420 kts | 275° |
| 2026-04-22 23:09 | 22.74275 | 47.41969 | 33876 ft | 421 kts | 275° |
| 2026-04-22 23:09 | 22.74779 | 47.35656 | 33872 ft | 421 kts | 274° |
| 2026-04-22 23:10 | 22.75277 | 47.29388 | 33885 ft | 420 kts | 274° |
| 2026-04-22 23:10 | 22.75777 | 47.23079 | 33883 ft | 420 kts | 274° |
| 2026-04-22 23:11 | 22.76274 | 47.16772 | 33889 ft | 420 kts | 274° |
| 2026-04-22 23:11 | 22.76778 | 47.10469 | 33888 ft | 420 kts | 274° |
| 2026-04-22 23:12 | 22.77279 | 47.04215 | 33908 ft | 420 kts | 274° |
| 2026-04-22 23:12 | 22.77774 | 46.97987 | 33899 ft | 420 kts | 274° |
| 2026-04-22 23:13 | 22.78273 | 46.91686 | 33892 ft | 419 kts | 274° |
| 2026-04-22 23:13 | 22.78767 | 46.85397 | 33885 ft | 419 kts | 274° |
| 2026-04-22 23:14 | 22.79258 | 46.79117 | 33902 ft | 418 kts | 274° |
| 2026-04-22 23:14 | 22.79743 | 46.72891 | 33903 ft | 417 kts | 274° |
| 2026-04-22 23:15 | 22.80228 | 46.66621 | 33901 ft | 417 kts | 274° |
| 2026-04-22 23:15 | 22.80711 | 46.60354 | 33900 ft | 417 kts | 274° |
| 2026-04-22 23:16 | 22.81192 | 46.54088 | 33910 ft | 417 kts | 274° |
| 2026-04-22 23:16 | 22.81667 | 46.47852 | 33933 ft | 418 kts | 274° |
| 2026-04-22 23:17 | 22.82143 | 46.41577 | 33908 ft | 418 kts | 274° |
| 2026-04-22 23:17 | 22.82614 | 46.35309 | 33900 ft | 417 kts | 274° |
| 2026-04-22 23:18 | 22.83076 | 46.29053 | 33902 ft | 416 kts | 274° |
| 2026-04-22 23:18 | 22.83531 | 46.22849 | 33901 ft | 416 kts | 274° |
| 2026-04-22 23:19 | 22.83988 | 46.16600 | 33880 ft | 416 kts | 274° |
| 2026-04-22 23:19 | 22.84442 | 46.10352 | 33911 ft | 416 kts | 274° |
| 2026-04-22 23:20 | 22.84896 | 46.04088 | 33886 ft | 417 kts | 274° |
| 2026-04-22 23:20 | 22.85342 | 45.97893 | 33884 ft | 417 kts | 274° |
| 2026-04-22 23:21 | 22.85788 | 45.91662 | 33899 ft | 418 kts | 274° |
| 2026-04-22 23:21 | 22.86236 | 45.85376 | 33891 ft | 418 kts | 274° |
| 2026-04-22 23:22 | 22.86681 | 45.79084 | 33887 ft | 419 kts | 274° |
| 2026-04-22 23:22 | 22.87124 | 45.72788 | 33882 ft | 419 kts | 274° |
| 2026-04-22 23:23 | 22.87562 | 45.66530 | 33896 ft | 419 kts | 274° |
| 2026-04-22 23:23 | 22.88001 | 45.60229 | 33892 ft | 419 kts | 274° |
| 2026-04-22 23:24 | 22.88437 | 45.53925 | 33882 ft | 419 kts | 274° |
| 2026-04-22 23:24 | 22.88871 | 45.47618 | 33893 ft | 420 kts | 274° |
| 2026-04-22 23:25 | 22.89303 | 45.41307 | 33896 ft | 419 kts | 273° |
| 2026-04-22 23:25 | 22.89689 | 45.35640 | 33904 ft | 420 kts | 273° |
| 2026-04-22 23:26 | 22.90116 | 45.29323 | 33892 ft | 420 kts | 273° |
| 2026-04-22 23:26 | 22.90541 | 45.23005 | 33893 ft | 420 kts | 273° |
| 2026-04-22 23:27 | 22.90962 | 45.16698 | 33887 ft | 419 kts | 273° |
| 2026-04-22 23:27 | 22.91379 | 45.10439 | 33901 ft | 419 kts | 273° |
| 2026-04-22 23:28 | 22.91796 | 45.04131 | 33895 ft | 419 kts | 273° |
| 2026-04-22 23:28 | 22.92207 | 44.97891 | 33887 ft | 419 kts | 273° |
| 2026-04-22 23:29 | 22.92620 | 44.91584 | 33901 ft | 419 kts | 273° |
| 2026-04-22 23:29 | 22.93028 | 44.85314 | 33901 ft | 420 kts | 273° |
| 2026-04-22 23:30 | 22.93437 | 44.78997 | 33905 ft | 420 kts | 273° |
| 2026-04-22 23:30 | 22.93845 | 44.72667 | 33896 ft | 421 kts | 273° |
| 2026-04-22 23:31 | 22.94464 | 44.67440 | 33910 ft | 421 kts | 279° |
| 2026-04-22 23:31 | 22.95954 | 44.61279 | 33909 ft | 423 kts | 285° |
| 2026-04-22 23:32 | 22.98151 | 44.54242 | 33903 ft | 424 kts | 285° |
| 2026-04-22 23:32 | 23.00039 | 44.48194 | 33897 ft | 423 kts | 285° |
| 2026-04-22 23:33 | 23.01596 | 44.43165 | 33897 ft | 423 kts | 285° |
| 2026-04-22 23:33 | 23.03461 | 44.37113 | 33892 ft | 422 kts | 285° |
| 2026-04-22 23:34 | 23.05320 | 44.31068 | 33899 ft | 422 kts | 285° |
| 2026-04-22 23:34 | 23.07161 | 44.25068 | 33889 ft | 421 kts | 285° |
| 2026-04-22 23:35 | 23.09011 | 44.19033 | 33899 ft | 421 kts | 285° |
| 2026-04-22 23:35 | 23.11157 | 44.12020 | 33876 ft | 421 kts | 285° |
| 2026-04-22 23:36 | 23.12699 | 44.06971 | 33884 ft | 421 kts | 285° |
| 2026-04-22 23:36 | 23.14526 | 44.00985 | 33914 ft | 420 kts | 285° |
| 2026-04-22 23:37 | 23.16340 | 43.95035 | 33898 ft | 419 kts | 286° |
| 2026-04-22 23:37 | 23.18169 | 43.89019 | 33893 ft | 419 kts | 285° |
| 2026-04-22 23:38 | 23.20288 | 43.82039 | 33917 ft | 418 kts | 286° |
| 2026-04-22 23:38 | 23.21799 | 43.77054 | 33912 ft | 417 kts | 286° |
| 2026-04-22 23:39 | 23.23612 | 43.71070 | 33913 ft | 417 kts | 286° |
| 2026-04-22 23:39 | 23.25421 | 43.65086 | 33915 ft | 416 kts | 286° |
| 2026-04-22 23:40 | 23.27225 | 43.59109 | 33931 ft | 415 kts | 286° |
| 2026-04-22 23:40 | 23.29021 | 43.53149 | 33923 ft | 414 kts | 286° |
| 2026-04-22 23:41 | 23.30795 | 43.47243 | 33927 ft | 413 kts | 286° |
| 2026-04-22 23:41 | 23.32575 | 43.41310 | 33950 ft | 412 kts | 286° |
| 2026-04-22 23:42 | 23.34347 | 43.35391 | 33935 ft | 411 kts | 286° |
| 2026-04-22 23:42 | 23.36112 | 43.29490 | 33946 ft | 410 kts | 286° |
| 2026-04-22 23:43 | 23.37861 | 43.23631 | 33952 ft | 410 kts | 286° |
| 2026-04-22 23:43 | 23.39619 | 43.17734 | 33961 ft | 410 kts | 286° |
| 2026-04-22 23:44 | 23.41375 | 43.11832 | 33959 ft | 410 kts | 286° |
| 2026-04-22 23:44 | 23.43121 | 43.05926 | 33967 ft | 410 kts | 286° |
| 2026-04-22 23:45 | 23.44861 | 43.00026 | 33971 ft | 409 kts | 286° |
| 2026-04-22 23:45 | 23.46571 | 42.94224 | 33963 ft | 409 kts | 286° |
| 2026-04-22 23:46 | 23.48306 | 42.88327 | 33962 ft | 408 kts | 286° |
| 2026-04-22 23:46 | 23.50037 | 42.82437 | 33967 ft | 408 kts | 286° |
| 2026-04-22 23:47 | 23.51765 | 42.76549 | 33966 ft | 408 kts | 286° |
| 2026-04-22 23:47 | 23.53487 | 42.70698 | 33964 ft | 408 kts | 286° |
| 2026-04-22 23:48 | 23.55227 | 42.64813 | 33972 ft | 408 kts | 286° |
| 2026-04-22 23:48 | 23.56964 | 42.58925 | 33979 ft | 408 kts | 286° |
| 2026-04-22 23:49 | 23.58697 | 42.53036 | 33974 ft | 408 kts | 286° |
| 2026-04-22 23:49 | 23.60415 | 42.47191 | 33974 ft | 407 kts | 286° |
| 2026-04-22 23:50 | 23.62139 | 42.41312 | 33971 ft | 407 kts | 286° |
| 2026-04-22 23:50 | 23.63860 | 42.35438 | 33974 ft | 406 kts | 286° |
| 2026-04-22 23:51 | 23.65576 | 42.29571 | 33972 ft | 406 kts | 286° |
| 2026-04-22 23:51 | 23.67275 | 42.23710 | 33979 ft | 405 kts | 286° |
| 2026-04-22 23:52 | 23.68951 | 42.17883 | 33985 ft | 405 kts | 286° |
| 2026-04-22 23:52 | 23.70637 | 42.12017 | 33975 ft | 405 kts | 286° |
| 2026-04-22 23:53 | 23.72321 | 42.06152 | 33983 ft | 405 kts | 286° |
| 2026-04-22 23:53 | 23.74003 | 42.00290 | 33983 ft | 404 kts | 286° |
| 2026-04-22 23:54 | 23.75676 | 41.94496 | 33976 ft | 404 kts | 286° |
| 2026-04-22 23:54 | 23.77369 | 41.88688 | 33981 ft | 404 kts | 286° |
| 2026-04-22 23:55 | 23.79067 | 41.82842 | 33977 ft | 404 kts | 286° |
| 2026-04-22 23:55 | 23.80761 | 41.76995 | 33983 ft | 404 kts | 286° |
| 2026-04-22 23:56 | 23.82444 | 41.71147 | 33974 ft | 404 kts | 285° |
| 2026-04-22 23:56 | 23.84111 | 41.65335 | 33979 ft | 404 kts | 285° |
| 2026-04-22 23:57 | 23.85789 | 41.59486 | 33974 ft | 403 kts | 285° |
| 2026-04-22 23:57 | 23.87463 | 41.53636 | 33992 ft | 403 kts | 285° |
| 2026-04-22 23:58 | 23.89131 | 41.47788 | 33977 ft | 403 kts | 285° |
| 2026-04-22 23:58 | 23.90787 | 41.41977 | 33977 ft | 403 kts | 285° |
| 2026-04-22 23:59 | 23.92450 | 41.36133 | 33974 ft | 403 kts | 285° |
| 2026-04-22 23:59 | 23.94109 | 41.30288 | 33981 ft | 402 kts | 285° |
| 2026-04-23 00:00 | 23.96593 | 41.21523 | 33974 ft | 402 kts | 285° |
| 2026-04-23 00:01 | 23.98234 | 41.15715 | 33973 ft | 402 kts | 285° |
| 2026-04-23 00:01 | 23.99884 | 41.09871 | 33983 ft | 402 kts | 285° |
| 2026-04-23 00:02 | 24.01530 | 41.04029 | 33972 ft | 402 kts | 285° |
| 2026-04-23 00:02 | 24.03159 | 40.98240 | 33974 ft | 402 kts | 285° |
| 2026-04-23 00:03 | 24.04791 | 40.92431 | 33973 ft | 402 kts | 285° |
| 2026-04-23 00:03 | 24.06428 | 40.86588 | 33973 ft | 402 kts | 285° |
| 2026-04-23 00:04 | 24.08062 | 40.80742 | 33975 ft | 402 kts | 285° |
| 2026-04-23 00:04 | 24.09694 | 40.74897 | 33975 ft | 402 kts | 285° |
| 2026-04-23 00:05 | 24.11314 | 40.69086 | 33970 ft | 402 kts | 285° |
| 2026-04-23 00:05 | 24.12943 | 40.63234 | 33970 ft | 402 kts | 285° |
| 2026-04-23 00:06 | 24.14571 | 40.57377 | 33968 ft | 402 kts | 285° |
| 2026-04-23 00:06 | 24.16346 | 40.51566 | 33974 ft | 403 kts | 289° |
| 2026-04-23 00:07 | 24.18799 | 40.46017 | 33979 ft | 406 kts | 293° |
| 2026-04-23 00:07 | 24.21419 | 40.40583 | 33972 ft | 406 kts | 293° |
| 2026-04-23 00:08 | 24.24047 | 40.35104 | 33973 ft | 406 kts | 293° |
| 2026-04-23 00:08 | 24.26666 | 40.29624 | 33972 ft | 406 kts | 293° |
| 2026-04-23 00:09 | 24.29281 | 40.24141 | 33979 ft | 406 kts | 293° |
| 2026-04-23 00:09 | 24.31876 | 40.18692 | 33976 ft | 406 kts | 293° |
| 2026-04-23 00:10 | 24.34485 | 40.13210 | 33976 ft | 406 kts | 293° |
| 2026-04-23 00:10 | 24.37093 | 40.07722 | 33978 ft | 406 kts | 293° |
| 2026-04-23 00:11 | 24.39698 | 40.02234 | 33983 ft | 406 kts | 293° |
| 2026-04-23 00:11 | 24.42278 | 39.96792 | 33975 ft | 406 kts | 293° |
| 2026-04-23 00:12 | 24.44863 | 39.91333 | 33971 ft | 406 kts | 293° |
| 2026-04-23 00:12 | 24.47464 | 39.85834 | 33969 ft | 406 kts | 293° |
| 2026-04-23 00:13 | 24.50065 | 39.80330 | 33982 ft | 406 kts | 292° |
| 2026-04-23 00:13 | 24.52730 | 39.74857 | 33950 ft | 410 kts | 297° |
| 2026-04-23 00:14 | 24.56340 | 39.69936 | 33954 ft | 416 kts | 305° |
| 2026-04-23 00:14 | 24.60602 | 39.65671 | 33976 ft | 422 kts | 314° |
| 2026-04-23 00:15 | 24.65388 | 39.61890 | 33958 ft | 424 kts | 315° |
| 2026-04-23 00:15 | 24.70190 | 39.58125 | 33970 ft | 424 kts | 315° |
| 2026-04-23 00:16 | 24.74947 | 39.54351 | 33956 ft | 425 kts | 315° |
| 2026-04-23 00:16 | 24.79731 | 39.50527 | 33974 ft | 425 kts | 315° |
| 2026-04-23 00:17 | 24.84521 | 39.46692 | 33974 ft | 426 kts | 315° |
| 2026-04-23 00:17 | 24.89314 | 39.42852 | 33970 ft | 425 kts | 314° |
| 2026-04-23 00:18 | 24.94059 | 39.39047 | 33963 ft | 424 kts | 314° |
| 2026-04-23 00:18 | 24.98824 | 39.35223 | 33966 ft | 424 kts | 314° |
| 2026-04-23 00:19 | 25.03583 | 39.31399 | 33967 ft | 423 kts | 314° |
| 2026-04-23 00:19 | 25.08331 | 39.27582 | 33962 ft | 422 kts | 314° |
| 2026-04-23 00:20 | 25.13068 | 39.23765 | 33955 ft | 421 kts | 314° |
| 2026-04-23 00:20 | 25.17766 | 39.19973 | 33956 ft | 420 kts | 313° |
| 2026-04-23 00:21 | 25.21944 | 39.15638 | 33953 ft | 408 kts | 304° |
| 2026-04-23 00:21 | 25.25521 | 39.10825 | 33950 ft | 402 kts | 297° |
| 2026-04-23 00:22 | 25.28562 | 39.05657 | 33953 ft | 402 kts | 296° |
| 2026-04-23 00:22 | 25.31563 | 39.00460 | 33952 ft | 405 kts | 296° |
| 2026-04-23 00:23 | 25.34588 | 38.95264 | 33939 ft | 406 kts | 296° |
| 2026-04-23 00:23 | 25.37648 | 38.90019 | 33929 ft | 405 kts | 296° |
| 2026-04-23 00:24 | 25.40701 | 38.84786 | 33938 ft | 404 kts | 296° |
| 2026-04-23 00:24 | 25.43745 | 38.79563 | 33920 ft | 404 kts | 296° |
| 2026-04-23 00:25 | 25.46761 | 38.74385 | 33908 ft | 402 kts | 296° |
| 2026-04-23 00:25 | 25.49787 | 38.69181 | 33901 ft | 402 kts | 296° |
| 2026-04-23 00:26 | 25.52805 | 38.63988 | 33912 ft | 401 kts | 296° |
| 2026-04-23 00:26 | 25.55827 | 38.58777 | 33915 ft | 403 kts | 296° |
| 2026-04-23 00:27 | 25.58858 | 38.53546 | 33910 ft | 404 kts | 296° |
| 2026-04-23 00:27 | 25.61875 | 38.48335 | 33911 ft | 405 kts | 296° |
| 2026-04-23 00:28 | 25.64919 | 38.43072 | 33903 ft | 406 kts | 296° |
| 2026-04-23 00:28 | 25.67960 | 38.37811 | 33943 ft | 405 kts | 296° |
| 2026-04-23 00:29 | 25.71004 | 38.32535 | 33916 ft | 406 kts | 296° |
| 2026-04-23 00:29 | 25.74026 | 38.27293 | 33905 ft | 406 kts | 296° |
| 2026-04-23 00:30 | 25.77062 | 38.22020 | 33904 ft | 406 kts | 296° |
| 2026-04-23 00:30 | 25.80100 | 38.16737 | 33899 ft | 407 kts | 295° |
| 2026-04-23 00:31 | 25.83140 | 38.11439 | 33906 ft | 407 kts | 295° |
| 2026-04-23 00:31 | 25.86162 | 38.06177 | 33906 ft | 406 kts | 295° |
| 2026-04-23 00:32 | 25.89187 | 38.00902 | 33904 ft | 404 kts | 295° |
| 2026-04-23 00:32 | 25.92169 | 37.95690 | 33916 ft | 403 kts | 295° |
| 2026-04-23 00:33 | 25.95177 | 37.90431 | 33932 ft | 404 kts | 295° |
| 2026-04-23 00:33 | 25.98122 | 37.85117 | 33912 ft | 401 kts | 290° |
| 2026-04-23 00:34 | 26.00185 | 37.79460 | 33919 ft | 397 kts | 284° |
| 2026-04-23 00:34 | 26.01593 | 37.73549 | 33945 ft | 395 kts | 276° |
| 2026-04-23 00:35 | 26.02392 | 37.67484 | 33949 ft | 398 kts | 276° |
| 2026-04-23 00:35 | 26.03199 | 37.61362 | 33914 ft | 401 kts | 276° |
| 2026-04-23 00:36 | 26.04024 | 37.55282 | 33912 ft | 400 kts | 276° |
| 2026-04-23 00:36 | 26.04852 | 37.49178 | 33907 ft | 399 kts | 276° |
| 2026-04-23 00:37 | 26.05667 | 37.43089 | 33913 ft | 398 kts | 276° |
| 2026-04-23 00:37 | 26.06470 | 37.37010 | 33899 ft | 398 kts | 276° |
| 2026-04-23 00:38 | 26.07274 | 37.30927 | 33892 ft | 398 kts | 276° |
| 2026-04-23 00:38 | 26.08078 | 37.24876 | 33900 ft | 398 kts | 276° |
| 2026-04-23 00:39 | 26.08880 | 37.18777 | 33887 ft | 399 kts | 276° |
| 2026-04-23 00:39 | 26.09682 | 37.12659 | 33876 ft | 400 kts | 275° |
| 2026-04-23 00:40 | 26.10485 | 37.06516 | 33882 ft | 402 kts | 275° |
| 2026-04-23 00:40 | 26.11288 | 37.00356 | 33878 ft | 403 kts | 275° |
| 2026-04-23 00:41 | 26.12077 | 36.94280 | 33878 ft | 404 kts | 276° |
| 2026-04-23 00:41 | 26.12879 | 36.88091 | 33859 ft | 403 kts | 275° |
| 2026-04-23 00:42 | 26.13674 | 36.81926 | 33867 ft | 401 kts | 275° |
| 2026-04-23 00:42 | 26.14462 | 36.75795 | 33870 ft | 399 kts | 275° |
| 2026-04-23 00:43 | 26.15246 | 36.69674 | 33877 ft | 400 kts | 275° |
| 2026-04-23 00:43 | 26.16024 | 36.63578 | 33874 ft | 401 kts | 275° |
| 2026-04-23 00:44 | 26.16809 | 36.57415 | 33870 ft | 403 kts | 275° |
| 2026-04-23 00:44 | 26.18129 | 36.51356 | 33892 ft | 410 kts | 288° |
| 2026-04-23 00:45 | 26.20800 | 36.45728 | 33892 ft | 419 kts | 296° |
| 2026-04-23 00:45 | 26.24691 | 36.40766 | 33885 ft | 430 kts | 306° |
| 2026-04-23 00:46 | 26.28905 | 36.36038 | 33924 ft | 429 kts | 307° |
| 2026-04-23 00:46 | 26.33102 | 36.31283 | 34028 ft | 431 kts | 306° |
| 2026-04-23 00:46 | 26.35189 | 36.28894 | 34308 ft | 429 kts | 306° |
| 2026-04-23 00:47 | 26.37233 | 36.26544 | 34616 ft | 427 kts | 306° |
| 2026-04-23 00:47 | 26.39290 | 36.24172 | 34908 ft | 425 kts | 306° |
| 2026-04-23 00:47 | 26.41340 | 36.21804 | 35145 ft | 424 kts | 306° |
| 2026-04-23 00:47 | 26.43388 | 36.19435 | 35370 ft | 424 kts | 306° |
| 2026-04-23 00:48 | 26.45432 | 36.17068 | 35588 ft | 424 kts | 306° |
| 2026-04-23 00:48 | 26.47477 | 36.14700 | 35789 ft | 423 kts | 306° |
| 2026-04-23 00:48 | 26.49522 | 36.12331 | 35804 ft | 422 kts | 306° |
| 2026-04-23 00:49 | 26.53529 | 36.07695 | 35862 ft | 413 kts | 305° |
| 2026-04-23 00:49 | 26.57493 | 36.03096 | 35878 ft | 411 kts | 305° |
| 2026-04-23 00:50 | 26.61420 | 35.98531 | 35878 ft | 411 kts | 305° |
| 2026-04-23 00:50 | 26.65378 | 35.93926 | 35882 ft | 411 kts | 305° |
| 2026-04-23 00:51 | 26.69324 | 35.89332 | 35889 ft | 413 kts | 305° |
| 2026-04-23 00:51 | 26.73310 | 35.84689 | 35885 ft | 415 kts | 305° |
| 2026-04-23 00:52 | 26.77309 | 35.80025 | 35883 ft | 416 kts | 305° |
| 2026-04-23 00:52 | 26.81315 | 35.75350 | 35894 ft | 417 kts | 305° |
| 2026-04-23 00:53 | 26.85328 | 35.70661 | 35887 ft | 417 kts | 305° |
| 2026-04-23 00:53 | 26.89318 | 35.65994 | 35890 ft | 418 kts | 305° |
| 2026-04-23 00:54 | 26.93336 | 35.61288 | 35887 ft | 418 kts | 305° |
| 2026-04-23 00:54 | 26.97350 | 35.56581 | 35884 ft | 418 kts | 305° |
| 2026-04-23 00:55 | 27.01331 | 35.51909 | 35892 ft | 417 kts | 305° |
| 2026-04-23 00:55 | 27.05339 | 35.47197 | 35899 ft | 419 kts | 306° |
| 2026-04-23 00:56 | 27.09366 | 35.42458 | 35904 ft | 420 kts | 306° |
| 2026-04-23 00:56 | 27.13398 | 35.37709 | 35897 ft | 421 kts | 306° |
| 2026-04-23 00:57 | 27.17438 | 35.32945 | 35897 ft | 421 kts | 306° |
| 2026-04-23 00:57 | 27.21454 | 35.28204 | 35899 ft | 422 kts | 306° |
| 2026-04-23 00:58 | 27.25504 | 35.23419 | 35899 ft | 422 kts | 306° |
| 2026-04-23 00:58 | 27.29552 | 35.18630 | 35898 ft | 423 kts | 306° |
| 2026-04-23 00:59 | 27.33602 | 35.13832 | 35898 ft | 423 kts | 306° |
| 2026-04-23 00:59 | 27.37623 | 35.09063 | 35896 ft | 423 kts | 306° |
| 2026-04-23 01:00 | 27.41674 | 35.04253 | 35924 ft | 424 kts | 306° |
| 2026-04-23 01:00 | 27.45698 | 34.99469 | 35909 ft | 425 kts | 306° |
| 2026-04-23 01:01 | 27.49769 | 34.94626 | 35908 ft | 427 kts | 306° |
| 2026-04-23 01:01 | 27.53967 | 34.89916 | 35904 ft | 431 kts | 309° |
| 2026-04-23 01:02 | 27.58354 | 34.85308 | 35906 ft | 432 kts | 309° |
| 2026-04-23 01:02 | 27.62754 | 34.80690 | 35913 ft | 432 kts | 309° |
| 2026-04-23 01:03 | 27.67143 | 34.76054 | 35915 ft | 432 kts | 309° |
| 2026-04-23 01:03 | 27.71497 | 34.71438 | 35928 ft | 433 kts | 309° |
| 2026-04-23 01:04 | 27.75881 | 34.66783 | 35926 ft | 433 kts | 309° |
| 2026-04-23 01:04 | 27.82471 | 34.59776 | 35941 ft | 434 kts | 309° |
| 2026-04-23 01:05 | 27.86873 | 34.55090 | 35936 ft | 435 kts | 309° |
| 2026-04-23 01:05 | 27.91246 | 34.50428 | 35943 ft | 435 kts | 309° |
| 2026-04-23 01:06 | 27.95649 | 34.45731 | 35950 ft | 435 kts | 309° |
| 2026-04-23 01:06 | 28.00010 | 34.40980 | 35952 ft | 432 kts | 306° |
| 2026-04-23 01:07 | 28.03836 | 34.35804 | 35936 ft | 429 kts | 302° |
| 2026-04-23 01:07 | 28.07571 | 34.30593 | 35935 ft | 429 kts | 302° |
| 2026-04-23 01:08 | 28.11346 | 34.25345 | 35963 ft | 430 kts | 302° |
| 2026-04-23 01:08 | 28.15126 | 34.20098 | 35999 ft | 430 kts | 302° |
| 2026-04-23 01:09 | 28.18914 | 34.14844 | 35977 ft | 431 kts | 302° |
| 2026-04-23 01:09 | 28.22679 | 34.09615 | 35979 ft | 431 kts | 303° |
| 2026-04-23 01:10 | 28.26475 | 34.04337 | 35985 ft | 432 kts | 303° |
| 2026-04-23 01:10 | 28.30247 | 33.99090 | 35990 ft | 435 kts | 303° |
| 2026-04-23 01:11 | 28.34058 | 33.93763 | 35973 ft | 435 kts | 302° |
| 2026-04-23 01:11 | 28.37847 | 33.88470 | 35972 ft | 430 kts | 303° |
| 2026-04-23 01:12 | 28.41588 | 33.83247 | 35970 ft | 428 kts | 302° |
| 2026-04-23 01:12 | 28.45338 | 33.77995 | 35963 ft | 428 kts | 302° |
| 2026-04-23 01:13 | 28.49088 | 33.72736 | 35959 ft | 428 kts | 302° |
| 2026-04-23 01:13 | 28.52847 | 33.67462 | 35979 ft | 430 kts | 302° |
| 2026-04-23 01:14 | 28.56594 | 33.62191 | 35959 ft | 433 kts | 302° |
| 2026-04-23 01:14 | 28.60387 | 33.56846 | 35964 ft | 435 kts | 302° |
| 2026-04-23 01:15 | 28.64191 | 33.51483 | 35964 ft | 435 kts | 302° |
| 2026-04-23 01:15 | 28.67995 | 33.46123 | 35959 ft | 435 kts | 302° |
| 2026-04-23 01:16 | 28.71772 | 33.40798 | 35962 ft | 435 kts | 302° |
| 2026-04-23 01:16 | 28.75568 | 33.35439 | 35957 ft | 434 kts | 302° |
| 2026-04-23 01:17 | 28.79358 | 33.30077 | 35967 ft | 434 kts | 302° |
| 2026-04-23 01:17 | 28.83144 | 33.24712 | 35969 ft | 434 kts | 302° |
| 2026-04-23 01:18 | 28.86906 | 33.19375 | 35963 ft | 435 kts | 302° |
| 2026-04-23 01:18 | 28.90692 | 33.13999 | 35976 ft | 435 kts | 302° |
| 2026-04-23 01:19 | 28.94480 | 33.08612 | 35963 ft | 435 kts | 302° |
| 2026-04-23 01:19 | 28.98265 | 33.03223 | 35970 ft | 435 kts | 302° |
| 2026-04-23 01:20 | 29.02013 | 32.97879 | 35970 ft | 435 kts | 302° |
| 2026-04-23 01:20 | 29.05771 | 32.92514 | 35980 ft | 436 kts | 302° |
| 2026-04-23 01:21 | 29.09558 | 32.87101 | 35985 ft | 436 kts | 302° |
| 2026-04-23 01:21 | 29.13345 | 32.81680 | 35986 ft | 436 kts | 302° |
| 2026-04-23 01:22 | 29.17130 | 32.76255 | 35983 ft | 436 kts | 302° |
| 2026-04-23 01:22 | 29.20917 | 32.70820 | 35994 ft | 436 kts | 302° |
| 2026-04-23 01:23 | 29.24673 | 32.65422 | 35994 ft | 436 kts | 302° |
| 2026-04-23 01:23 | 29.28452 | 32.59985 | 36013 ft | 436 kts | 302° |
| 2026-04-23 01:24 | 29.32210 | 32.54529 | 35999 ft | 436 kts | 302° |
| 2026-04-23 01:24 | 29.35958 | 32.49057 | 36009 ft | 437 kts | 302° |
| 2026-04-23 01:25 | 29.39685 | 32.43610 | 36014 ft | 437 kts | 302° |
| 2026-04-23 01:25 | 29.43443 | 32.38116 | 36017 ft | 438 kts | 302° |
| 2026-04-23 01:26 | 29.47196 | 32.32622 | 36034 ft | 438 kts | 302° |
| 2026-04-23 01:26 | 29.50951 | 32.27118 | 36034 ft | 438 kts | 302° |
| 2026-04-23 01:27 | 29.54703 | 32.21612 | 36052 ft | 439 kts | 302° |
| 2026-04-23 01:27 | 29.58438 | 32.16125 | 36029 ft | 438 kts | 302° |
| 2026-04-23 01:28 | 29.62181 | 32.10612 | 36030 ft | 437 kts | 302° |
| 2026-04-23 01:28 | 29.65914 | 32.05111 | 36047 ft | 436 kts | 302° |
| 2026-04-23 01:29 | 29.69607 | 31.99662 | 36041 ft | 436 kts | 302° |
| 2026-04-23 01:29 | 29.73309 | 31.94190 | 36044 ft | 436 kts | 302° |
| 2026-04-23 01:30 | 29.77037 | 31.88673 | 36046 ft | 438 kts | 302° |
| 2026-04-23 01:30 | 29.80724 | 31.83104 | 36054 ft | 437 kts | 301° |
| 2026-04-23 01:31 | 29.84334 | 31.77452 | 36052 ft | 438 kts | 301° |
| 2026-04-23 01:31 | 29.87941 | 31.71837 | 36049 ft | 439 kts | 302° |
| 2026-04-23 01:32 | 29.89999 | 31.69220 | 36040 ft | 447 kts | 315° |
| 2026-04-23 01:32 | 29.92588 | 31.67175 | 36053 ft | 456 kts | 324° |
| 2026-04-23 01:32 | 29.98689 | 31.64756 | 36059 ft | 475 kts | 343° |
| 2026-04-23 01:33 | 30.05256 | 31.63665 | 36057 ft | 479 kts | 345° |
| 2026-04-23 01:33 | 30.11873 | 31.62608 | 36046 ft | 481 kts | 345° |
| 2026-04-23 01:34 | 30.18436 | 31.61474 | 36041 ft | 480 kts | 344° |
| 2026-04-23 01:34 | 30.25026 | 31.60290 | 36017 ft | 479 kts | 344° |
| 2026-04-23 01:35 | 30.31604 | 31.59099 | 36021 ft | 478 kts | 344° |
| 2026-04-23 01:35 | 30.38168 | 31.57912 | 36028 ft | 477 kts | 345° |
| 2026-04-23 01:36 | 30.44668 | 31.56738 | 36019 ft | 476 kts | 345° |
| 2026-04-23 01:36 | 30.51202 | 31.55556 | 36023 ft | 474 kts | 345° |
| 2026-04-23 01:37 | 30.57720 | 31.54376 | 36023 ft | 474 kts | 344° |
| 2026-04-23 01:37 | 30.64229 | 31.53194 | 36030 ft | 474 kts | 345° |
| 2026-04-23 01:38 | 30.70698 | 31.52019 | 36028 ft | 474 kts | 345° |
| 2026-04-23 01:38 | 30.77205 | 31.50836 | 36022 ft | 474 kts | 345° |
| 2026-04-23 01:39 | 30.83717 | 31.49654 | 36053 ft | 474 kts | 345° |
| 2026-04-23 01:39 | 30.90234 | 31.48469 | 36032 ft | 474 kts | 345° |
| 2026-04-23 01:40 | 30.96751 | 31.47283 | 36032 ft | 474 kts | 345° |
| 2026-04-23 01:40 | 31.03225 | 31.46102 | 36023 ft | 474 kts | 345° |
| 2026-04-23 01:41 | 31.09746 | 31.44911 | 36054 ft | 474 kts | 345° |
| 2026-04-23 01:41 | 31.16266 | 31.43719 | 36026 ft | 474 kts | 345° |
| 2026-04-23 01:42 | 31.22784 | 31.42525 | 36047 ft | 474 kts | 345° |
| 2026-04-23 01:42 | 31.29299 | 31.41322 | 36054 ft | 474 kts | 345° |
| 2026-04-23 01:43 | 31.35764 | 31.40109 | 36058 ft | 474 kts | 345° |
| 2026-04-23 01:43 | 31.42274 | 31.38885 | 36050 ft | 474 kts | 345° |
| 2026-04-23 01:44 | 31.48782 | 31.37663 | 36049 ft | 473 kts | 345° |
| 2026-04-23 01:44 | 31.55284 | 31.36451 | 36045 ft | 473 kts | 346° |
| 2026-04-23 01:45 | 31.61819 | 31.35678 | 36058 ft | 476 kts | 349° |
| 2026-04-23 01:45 | 31.68423 | 31.35054 | 36056 ft | 476 kts | 349° |
| 2026-04-23 01:46 | 31.75020 | 31.34398 | 36057 ft | 476 kts | 349° |
| 2026-04-23 01:46 | 31.81613 | 31.33716 | 36057 ft | 476 kts | 349° |
| 2026-04-23 01:47 | 31.88160 | 31.33038 | 36057 ft | 476 kts | 349° |
| 2026-04-23 01:47 | 31.94752 | 31.32349 | 36061 ft | 476 kts | 349° |
| 2026-04-23 01:48 | 32.01344 | 31.31657 | 36057 ft | 476 kts | 349° |
| 2026-04-23 01:48 | 32.07944 | 31.30965 | 36079 ft | 476 kts | 349° |
| 2026-04-23 01:49 | 32.14544 | 31.30278 | 36060 ft | 476 kts | 349° |
| 2026-04-23 01:49 | 32.21103 | 31.29586 | 36059 ft | 476 kts | 349° |
| 2026-04-23 01:50 | 32.27696 | 31.28871 | 36060 ft | 476 kts | 349° |
| 2026-04-23 01:50 | 32.34289 | 31.28154 | 36070 ft | 476 kts | 349° |
| 2026-04-23 01:51 | 32.40834 | 31.27444 | 36060 ft | 475 kts | 349° |
| 2026-04-23 01:51 | 32.47420 | 31.26729 | 36059 ft | 475 kts | 349° |
| 2026-04-23 01:52 | 32.53987 | 31.25955 | 36058 ft | 472 kts | 345° |
| 2026-04-23 01:52 | 32.60269 | 31.24012 | 36068 ft | 463 kts | 335° |
| 2026-04-23 01:53 | 32.66089 | 31.20892 | 36066 ft | 458 kts | 328° |
| 2026-04-23 01:53 | 32.71739 | 31.17521 | 36059 ft | 458 kts | 328° |
| 2026-04-23 01:54 | 32.77440 | 31.14141 | 36060 ft | 458 kts | 329° |
| 2026-04-23 01:54 | 32.83155 | 31.10786 | 36081 ft | 458 kts | 329° |
| 2026-04-23 01:55 | 32.88880 | 31.07430 | 36062 ft | 459 kts | 329° |
| 2026-04-23 01:55 | 32.94607 | 31.04068 | 36059 ft | 459 kts | 329° |
| 2026-04-23 01:56 | 33.00288 | 31.00726 | 36060 ft | 459 kts | 329° |
| 2026-04-23 01:56 | 33.05949 | 30.97391 | 36058 ft | 459 kts | 329° |
| 2026-04-23 01:57 | 33.11628 | 30.93939 | 36054 ft | 457 kts | 326° |
| 2026-04-23 01:57 | 33.17099 | 30.90197 | 36054 ft | 456 kts | 325° |
| 2026-04-23 01:58 | 33.22572 | 30.86379 | 36050 ft | 456 kts | 325° |
| 2026-04-23 01:58 | 33.28055 | 30.82569 | 36054 ft | 456 kts | 326° |
| 2026-04-23 01:59 | 33.33543 | 30.78771 | 36055 ft | 456 kts | 326° |
| 2026-04-23 01:59 | 33.39032 | 30.74972 | 36069 ft | 456 kts | 326° |
| 2026-04-23 02:00 | 33.44483 | 30.71195 | 36063 ft | 456 kts | 326° |
| 2026-04-23 02:00 | 33.49972 | 30.67385 | 36054 ft | 456 kts | 326° |
| 2026-04-23 02:01 | 33.55462 | 30.63569 | 36057 ft | 456 kts | 326° |
| 2026-04-23 02:01 | 33.60946 | 30.59751 | 36047 ft | 456 kts | 326° |
| 2026-04-23 02:02 | 33.66388 | 30.55956 | 36073 ft | 455 kts | 326° |
| 2026-04-23 02:02 | 33.71871 | 30.52126 | 36056 ft | 456 kts | 326° |
| 2026-04-23 02:03 | 33.77350 | 30.48295 | 36049 ft | 456 kts | 326° |
| 2026-04-23 02:03 | 33.82828 | 30.44458 | 36047 ft | 456 kts | 326° |
| 2026-04-23 02:04 | 33.88303 | 30.40617 | 36049 ft | 455 kts | 326° |
| 2026-04-23 02:04 | 33.93737 | 30.36800 | 36044 ft | 455 kts | 326° |
| 2026-04-23 02:05 | 33.99205 | 30.32953 | 36052 ft | 455 kts | 326° |
| 2026-04-23 02:05 | 34.04661 | 30.29109 | 36046 ft | 455 kts | 326° |
| 2026-04-23 02:06 | 34.10113 | 30.25261 | 36042 ft | 454 kts | 326° |
| 2026-04-23 02:06 | 34.15527 | 30.21435 | 36037 ft | 454 kts | 326° |
| 2026-04-23 02:07 | 34.20970 | 30.17582 | 36041 ft | 453 kts | 326° |
| 2026-04-23 02:07 | 34.26410 | 30.13725 | 36051 ft | 453 kts | 326° |
| 2026-04-23 02:08 | 34.31850 | 30.09862 | 36049 ft | 453 kts | 326° |
| 2026-04-23 02:08 | 34.37249 | 30.06023 | 36035 ft | 453 kts | 326° |
| 2026-04-23 02:09 | 34.42670 | 30.02153 | 36043 ft | 452 kts | 324° |
| 2026-04-23 02:09 | 34.47613 | 29.97669 | 36043 ft | 446 kts | 314° |
| 2026-04-23 02:10 | 34.51983 | 29.92364 | 36044 ft | 444 kts | 311° |
| 2026-04-23 02:10 | 34.56260 | 29.87019 | 36042 ft | 445 kts | 311° |
| 2026-04-23 02:11 | 34.60583 | 29.81645 | 36038 ft | 445 kts | 311° |
| 2026-04-23 02:11 | 34.64919 | 29.76271 | 36026 ft | 445 kts | 311° |
| 2026-04-23 02:12 | 34.69256 | 29.70895 | 36041 ft | 445 kts | 311° |
| 2026-04-23 02:12 | 34.73558 | 29.65553 | 36045 ft | 445 kts | 311° |
| 2026-04-23 02:13 | 34.77887 | 29.60169 | 36041 ft | 445 kts | 311° |
| 2026-04-23 02:13 | 34.82213 | 29.54778 | 36041 ft | 445 kts | 311° |
| 2026-04-23 02:14 | 34.86533 | 29.49387 | 36036 ft | 444 kts | 311° |
| 2026-04-23 02:14 | 34.90841 | 29.44002 | 36039 ft | 443 kts | 311° |
| 2026-04-23 02:15 | 34.97247 | 29.35979 | 36039 ft | 441 kts | 311° |
| 2026-04-23 02:16 | 35.01836 | 29.30991 | 36037 ft | 444 kts | 319° |
| 2026-04-23 02:16 | 35.05964 | 29.27257 | 36038 ft | 444 kts | 320° |
| 2026-04-23 02:17 | 35.10938 | 29.22773 | 36030 ft | 444 kts | 320° |
| 2026-04-23 02:17 | 35.16702 | 29.17532 | 36050 ft | 445 kts | 319° |
| 2026-04-23 02:18 | 35.20857 | 29.13732 | 36040 ft | 445 kts | 319° |
| 2026-04-23 02:18 | 35.26619 | 29.08448 | 36035 ft | 445 kts | 319° |
| 2026-04-23 02:19 | 35.30738 | 29.04666 | 36032 ft | 445 kts | 319° |
| 2026-04-23 02:19 | 35.36450 | 28.99413 | 36031 ft | 445 kts | 319° |
| 2026-04-23 02:20 | 35.40570 | 28.95619 | 36030 ft | 445 kts | 319° |
| 2026-04-23 02:20 | 35.45519 | 28.91055 | 36047 ft | 445 kts | 319° |
| 2026-04-23 02:21 | 35.50470 | 28.86481 | 36035 ft | 445 kts | 319° |
| 2026-04-23 02:21 | 35.55415 | 28.81906 | 36029 ft | 445 kts | 319° |
| 2026-04-23 02:22 | 35.61159 | 28.76583 | 36027 ft | 445 kts | 319° |
| 2026-04-23 02:22 | 35.65259 | 28.72777 | 36028 ft | 444 kts | 319° |
| 2026-04-23 02:23 | 35.70192 | 28.68191 | 36026 ft | 444 kts | 319° |
| 2026-04-23 02:23 | 35.75118 | 28.63604 | 36044 ft | 444 kts | 319° |
| 2026-04-23 02:24 | 35.80046 | 28.59008 | 36024 ft | 444 kts | 319° |
| 2026-04-23 02:24 | 35.84933 | 28.54444 | 36023 ft | 444 kts | 319° |
| 2026-04-23 02:25 | 35.89848 | 28.49846 | 36024 ft | 443 kts | 319° |
| 2026-04-23 02:25 | 35.94758 | 28.45244 | 36024 ft | 443 kts | 319° |
| 2026-04-23 02:26 | 35.99665 | 28.40639 | 36022 ft | 443 kts | 319° |
| 2026-04-23 02:26 | 36.04534 | 28.36062 | 36027 ft | 443 kts | 319° |
| 2026-04-23 02:27 | 36.09434 | 28.31447 | 36010 ft | 443 kts | 319° |
| 2026-04-23 02:27 | 36.14336 | 28.26825 | 36008 ft | 443 kts | 319° |
| 2026-04-23 02:28 | 36.19228 | 28.22203 | 36000 ft | 442 kts | 319° |
| 2026-04-23 02:28 | 36.24118 | 28.17576 | 35994 ft | 442 kts | 318° |
| 2026-04-23 02:29 | 36.28970 | 28.12977 | 35987 ft | 442 kts | 318° |
| 2026-04-23 02:29 | 36.33846 | 28.08324 | 36009 ft | 442 kts | 316° |
| 2026-04-23 02:30 | 36.38385 | 28.03236 | 36002 ft | 440 kts | 313° |
| 2026-04-23 02:30 | 36.42806 | 27.98088 | 35991 ft | 439 kts | 313° |
| 2026-04-23 02:31 | 36.47237 | 27.92934 | 35992 ft | 439 kts | 313° |
| 2026-04-23 02:31 | 36.51703 | 27.87752 | 35990 ft | 439 kts | 313° |
| 2026-04-23 02:32 | 36.56168 | 27.82572 | 35987 ft | 439 kts | 313° |
| 2026-04-23 02:32 | 36.60633 | 27.77385 | 35989 ft | 439 kts | 313° |
| 2026-04-23 02:33 | 36.65096 | 27.72191 | 35998 ft | 439 kts | 313° |
| 2026-04-23 02:33 | 36.69527 | 27.67025 | 35990 ft | 439 kts | 313° |
| 2026-04-23 02:34 | 36.73982 | 27.61823 | 35991 ft | 439 kts | 313° |
| 2026-04-23 02:34 | 36.78431 | 27.56619 | 35994 ft | 438 kts | 313° |
| 2026-04-23 02:35 | 36.82872 | 27.51414 | 35984 ft | 438 kts | 313° |
| 2026-04-23 02:35 | 36.87281 | 27.46240 | 36000 ft | 438 kts | 313° |
| 2026-04-23 02:36 | 36.91715 | 27.41026 | 35992 ft | 438 kts | 313° |
| 2026-04-23 02:36 | 36.96147 | 27.35807 | 36006 ft | 438 kts | 313° |
| 2026-04-23 02:37 | 37.00575 | 27.30584 | 36006 ft | 438 kts | 313° |
| 2026-04-23 02:37 | 37.04976 | 27.25384 | 35987 ft | 438 kts | 313° |
| 2026-04-23 02:38 | 37.09402 | 27.20145 | 36003 ft | 438 kts | 313° |
| 2026-04-23 02:38 | 37.13821 | 27.14906 | 35996 ft | 437 kts | 312° |
| 2026-04-23 02:39 | 37.18238 | 27.09660 | 35982 ft | 437 kts | 312° |
| 2026-04-23 02:39 | 37.22616 | 27.04452 | 35984 ft | 437 kts | 312° |
| 2026-04-23 02:40 | 37.26974 | 26.99259 | 35991 ft | 437 kts | 312° |
| 2026-04-23 02:40 | 37.31374 | 26.94006 | 35981 ft | 436 kts | 312° |
| 2026-04-23 02:41 | 37.35774 | 26.88745 | 35983 ft | 436 kts | 312° |
| 2026-04-23 02:41 | 37.40145 | 26.83533 | 35986 ft | 437 kts | 314° |
| 2026-04-23 02:42 | 37.44739 | 26.78521 | 35981 ft | 437 kts | 315° |
| 2026-04-23 02:42 | 37.49385 | 26.73570 | 35980 ft | 437 kts | 315° |
| 2026-04-23 02:43 | 37.54011 | 26.68600 | 35981 ft | 437 kts | 315° |
| 2026-04-23 02:43 | 37.58593 | 26.63647 | 35980 ft | 437 kts | 315° |
| 2026-04-23 02:44 | 37.63201 | 26.58653 | 35973 ft | 437 kts | 315° |
| 2026-04-23 02:44 | 37.67809 | 26.53654 | 35971 ft | 437 kts | 315° |
| 2026-04-23 02:45 | 37.72410 | 26.48642 | 35963 ft | 437 kts | 315° |
| 2026-04-23 02:45 | 37.77003 | 26.43620 | 35961 ft | 436 kts | 315° |
| 2026-04-23 02:46 | 37.81561 | 26.38629 | 35958 ft | 436 kts | 315° |
| 2026-04-23 02:46 | 37.86151 | 26.33596 | 35964 ft | 437 kts | 314° |
| 2026-04-23 02:47 | 37.90742 | 26.28567 | 35959 ft | 437 kts | 315° |
| 2026-04-23 02:47 | 37.95336 | 26.23535 | 35952 ft | 436 kts | 315° |
| 2026-04-23 02:48 | 37.99894 | 26.18531 | 35957 ft | 436 kts | 315° |
| 2026-04-23 02:48 | 38.04471 | 26.13497 | 35958 ft | 436 kts | 315° |
| 2026-04-23 02:49 | 38.09053 | 26.08451 | 35958 ft | 436 kts | 315° |
| 2026-04-23 02:49 | 38.13631 | 26.03403 | 35972 ft | 436 kts | 314° |
| 2026-04-23 02:50 | 38.18152 | 25.98407 | 35964 ft | 436 kts | 314° |
| 2026-04-23 02:50 | 38.22702 | 25.93371 | 35966 ft | 437 kts | 315° |
| 2026-04-23 02:51 | 38.27378 | 25.88413 | 35971 ft | 439 kts | 317° |
| 2026-04-23 02:51 | 38.32237 | 25.83693 | 35963 ft | 439 kts | 318° |
| 2026-04-23 02:52 | 38.37109 | 25.78995 | 35955 ft | 439 kts | 318° |
| 2026-04-23 02:52 | 38.41940 | 25.74305 | 35951 ft | 439 kts | 318° |
| 2026-04-23 02:53 | 38.46789 | 25.69572 | 35955 ft | 439 kts | 318° |
| 2026-04-23 02:53 | 38.51637 | 25.64825 | 35947 ft | 439 kts | 318° |
| 2026-04-23 02:54 | 38.56473 | 25.60081 | 35950 ft | 439 kts | 318° |
| 2026-04-23 02:54 | 38.61310 | 25.55328 | 35948 ft | 439 kts | 318° |
| 2026-04-23 02:55 | 38.66113 | 25.50601 | 35959 ft | 438 kts | 318° |
| 2026-04-23 02:55 | 38.70946 | 25.45836 | 35970 ft | 439 kts | 317° |
| 2026-04-23 02:56 | 38.75776 | 25.41066 | 35962 ft | 438 kts | 317° |
| 2026-04-23 02:56 | 38.80602 | 25.36292 | 35966 ft | 438 kts | 317° |
| 2026-04-23 02:57 | 38.85387 | 25.31550 | 35971 ft | 437 kts | 317° |
| 2026-04-23 02:57 | 38.90195 | 25.26776 | 35968 ft | 437 kts | 317° |
| 2026-04-23 02:58 | 38.94995 | 25.22002 | 36004 ft | 436 kts | 317° |
| 2026-04-23 02:58 | 38.99793 | 25.17221 | 35982 ft | 436 kts | 317° |
| 2026-04-23 02:59 | 39.04575 | 25.12448 | 35982 ft | 436 kts | 317° |
| 2026-04-23 02:59 | 39.09328 | 25.07696 | 35990 ft | 435 kts | 317° |
| 2026-04-23 03:00 | 39.14109 | 25.02908 | 35987 ft | 435 kts | 317° |
| 2026-04-23 03:00 | 39.18844 | 24.98156 | 35995 ft | 435 kts | 317° |
| 2026-04-23 03:01 | 39.23621 | 24.93354 | 36008 ft | 436 kts | 317° |
| 2026-04-23 03:01 | 39.28369 | 24.88574 | 35992 ft | 436 kts | 317° |
| 2026-04-23 03:02 | 39.33148 | 24.83753 | 36001 ft | 435 kts | 317° |
| 2026-04-23 03:02 | 39.37920 | 24.78931 | 36005 ft | 435 kts | 317° |
| 2026-04-23 03:03 | 39.42682 | 24.74110 | 36009 ft | 435 kts | 317° |
| 2026-04-23 03:03 | 39.47414 | 24.69311 | 36010 ft | 435 kts | 317° |
| 2026-04-23 03:04 | 39.52175 | 24.64474 | 36019 ft | 435 kts | 317° |
| 2026-04-23 03:04 | 39.56934 | 24.59630 | 36015 ft | 435 kts | 317° |
| 2026-04-23 03:05 | 39.61692 | 24.54779 | 36021 ft | 435 kts | 317° |
| 2026-04-23 03:05 | 39.66415 | 24.49956 | 36022 ft | 435 kts | 317° |
| 2026-04-23 03:06 | 39.71163 | 24.45097 | 36025 ft | 435 kts | 316° |
| 2026-04-23 03:06 | 39.75908 | 24.40233 | 36049 ft | 435 kts | 316° |
| 2026-04-23 03:07 | 39.80655 | 24.35358 | 36034 ft | 435 kts | 316° |
| 2026-04-23 03:07 | 39.85360 | 24.30517 | 36031 ft | 434 kts | 316° |
| 2026-04-23 03:08 | 39.90089 | 24.25643 | 36030 ft | 433 kts | 316° |
| 2026-04-23 03:08 | 39.94814 | 24.20765 | 36032 ft | 433 kts | 316° |
| 2026-04-23 03:09 | 39.99527 | 24.15890 | 36034 ft | 432 kts | 316° |
| 2026-04-23 03:09 | 40.04232 | 24.11014 | 36049 ft | 433 kts | 316° |
| 2026-04-23 03:10 | 40.08914 | 24.06153 | 36045 ft | 433 kts | 316° |
| 2026-04-23 03:10 | 40.13617 | 24.01261 | 36037 ft | 432 kts | 316° |
| 2026-04-23 03:11 | 40.18254 | 23.96430 | 36037 ft | 431 kts | 316° |
| 2026-04-23 03:11 | 40.22941 | 23.91538 | 36037 ft | 431 kts | 316° |
| 2026-04-23 03:12 | 40.27590 | 23.86677 | 36040 ft | 431 kts | 316° |
| 2026-04-23 03:12 | 40.32268 | 23.81776 | 36041 ft | 431 kts | 316° |
| 2026-04-23 03:13 | 40.36942 | 23.76869 | 36032 ft | 430 kts | 316° |
| 2026-04-23 03:13 | 40.41612 | 23.71959 | 36051 ft | 430 kts | 316° |
| 2026-04-23 03:14 | 40.46248 | 23.67074 | 36039 ft | 431 kts | 316° |
| 2026-04-23 03:14 | 40.50924 | 23.62141 | 36036 ft | 431 kts | 316° |
| 2026-04-23 03:15 | 40.55602 | 23.57194 | 36076 ft | 432 kts | 316° |
| 2026-04-23 03:15 | 40.60286 | 23.52233 | 36054 ft | 432 kts | 316° |
| 2026-04-23 03:16 | 40.64925 | 23.47311 | 36031 ft | 430 kts | 315° |
| 2026-04-23 03:16 | 40.71892 | 23.39900 | 36047 ft | 428 kts | 315° |
| 2026-04-23 03:17 | 40.76526 | 23.34960 | 36031 ft | 428 kts | 315° |
| 2026-04-23 03:17 | 40.81118 | 23.30055 | 36094 ft | 427 kts | 315° |
| 2026-04-23 03:18 | 40.85737 | 23.25112 | 36052 ft | 427 kts | 315° |
| 2026-04-23 03:18 | 40.90357 | 23.20157 | 36042 ft | 428 kts | 315° |
| 2026-04-23 03:19 | 40.94970 | 23.15204 | 36035 ft | 426 kts | 315° |
| 2026-04-23 03:19 | 40.99570 | 23.10253 | 36035 ft | 426 kts | 315° |
| 2026-04-23 03:20 | 41.04126 | 23.05341 | 36032 ft | 425 kts | 315° |
| 2026-04-23 03:20 | 41.08690 | 23.00364 | 36030 ft | 424 kts | 313° |
| 2026-04-23 03:21 | 41.12684 | 22.94822 | 36031 ft | 418 kts | 305° |
| 2026-04-23 03:21 | 41.16408 | 22.88900 | 36031 ft | 419 kts | 305° |
| 2026-04-23 03:22 | 41.20131 | 22.83013 | 36035 ft | 420 kts | 306° |
| 2026-04-23 03:22 | 41.23896 | 22.77073 | 36014 ft | 421 kts | 306° |
| 2026-04-23 03:23 | 41.27750 | 22.71202 | 36024 ft | 422 kts | 308° |
| 2026-04-23 03:23 | 41.31701 | 22.65488 | 36027 ft | 423 kts | 308° |
| 2026-04-23 03:24 | 41.35680 | 22.59725 | 36070 ft | 423 kts | 308° |
| 2026-04-23 03:24 | 41.39638 | 22.53940 | 36045 ft | 422 kts | 308° |
| 2026-04-23 03:25 | 41.43574 | 22.48156 | 36030 ft | 420 kts | 307° |
| 2026-04-23 03:25 | 41.47469 | 22.42415 | 36040 ft | 420 kts | 307° |
| 2026-04-23 03:26 | 41.51376 | 22.36644 | 36038 ft | 419 kts | 307° |
| 2026-04-23 03:26 | 41.55272 | 22.30880 | 36045 ft | 418 kts | 307° |
| 2026-04-23 03:27 | 41.59158 | 22.25120 | 36044 ft | 417 kts | 307° |
| 2026-04-23 03:27 | 41.63015 | 22.19391 | 36049 ft | 417 kts | 307° |
| 2026-04-23 03:28 | 41.66904 | 22.13603 | 36059 ft | 419 kts | 307° |
| 2026-04-23 03:28 | 41.70807 | 22.07782 | 36052 ft | 421 kts | 307° |
| 2026-04-23 03:29 | 41.74722 | 22.01933 | 36054 ft | 422 kts | 307° |
| 2026-04-23 03:29 | 41.78584 | 21.96152 | 36048 ft | 424 kts | 307° |
| 2026-04-23 03:30 | 41.82515 | 21.90258 | 36053 ft | 424 kts | 307° |
| 2026-04-23 03:30 | 41.86446 | 21.84351 | 36048 ft | 424 kts | 307° |
| 2026-04-23 03:31 | 41.90374 | 21.78436 | 36056 ft | 425 kts | 307° |
| 2026-04-23 03:31 | 41.94285 | 21.72532 | 36050 ft | 428 kts | 308° |
| 2026-04-23 03:32 | 41.98259 | 21.66524 | 36058 ft | 432 kts | 308° |
| 2026-04-23 03:32 | 42.02258 | 21.60466 | 36065 ft | 435 kts | 308° |
| 2026-04-23 03:33 | 42.06278 | 21.54363 | 36061 ft | 436 kts | 308° |
| 2026-04-23 03:33 | 42.10277 | 21.48279 | 36058 ft | 437 kts | 308° |
| 2026-04-23 03:34 | 42.14297 | 21.42152 | 36056 ft | 436 kts | 308° |
| 2026-04-23 03:34 | 42.18274 | 21.36016 | 36064 ft | 433 kts | 307° |
| 2026-04-23 03:35 | 42.22172 | 21.29825 | 36070 ft | 432 kts | 307° |
| 2026-04-23 03:35 | 42.26046 | 21.23650 | 36066 ft | 430 kts | 307° |
| 2026-04-23 03:36 | 42.29878 | 21.17547 | 36065 ft | 428 kts | 307° |
| 2026-04-23 03:36 | 42.33717 | 21.11430 | 36079 ft | 426 kts | 307° |
| 2026-04-23 03:37 | 42.37535 | 21.05334 | 36071 ft | 424 kts | 307° |
| 2026-04-23 03:37 | 42.41297 | 20.99316 | 36072 ft | 424 kts | 307° |
| 2026-04-23 03:38 | 42.45077 | 20.93255 | 36080 ft | 424 kts | 307° |
| 2026-04-23 03:38 | 42.48882 | 20.87142 | 36085 ft | 425 kts | 307° |
| 2026-04-23 03:39 | 42.52705 | 20.80987 | 36079 ft | 427 kts | 307° |
| 2026-04-23 03:39 | 42.56541 | 20.74798 | 36085 ft | 430 kts | 306° |
| 2026-04-23 03:40 | 42.60366 | 20.68615 | 36077 ft | 431 kts | 306° |
| 2026-04-23 03:40 | 42.64226 | 20.62362 | 36053 ft | 433 kts | 306° |
| 2026-04-23 03:41 | 42.68091 | 20.56089 | 36064 ft | 433 kts | 306° |
| 2026-04-23 03:41 | 42.71955 | 20.49802 | 36056 ft | 433 kts | 306° |
| 2026-04-23 03:42 | 42.75815 | 20.43508 | 36096 ft | 433 kts | 307° |
| 2026-04-23 03:42 | 42.79654 | 20.37238 | 36078 ft | 435 kts | 307° |
| 2026-04-23 03:43 | 42.83293 | 20.30659 | 36082 ft | 435 kts | 300° |
| 2026-04-23 03:43 | 42.86143 | 20.23404 | 36079 ft | 435 kts | 294° |
| 2026-04-23 03:44 | 42.88715 | 20.15928 | 36072 ft | 436 kts | 294° |
| 2026-04-23 03:44 | 42.91284 | 20.08441 | 36064 ft | 436 kts | 294° |
| 2026-04-23 03:45 | 42.93847 | 20.00998 | 36068 ft | 437 kts | 294° |
| 2026-04-23 03:45 | 42.96409 | 19.93567 | 36074 ft | 437 kts | 294° |
| 2026-04-23 03:46 | 42.98994 | 19.86049 | 36063 ft | 437 kts | 294° |
| 2026-04-23 03:46 | 43.01566 | 19.78549 | 36068 ft | 437 kts | 294° |
| 2026-04-23 03:47 | 43.04121 | 19.71077 | 36064 ft | 437 kts | 294° |
| 2026-04-23 03:47 | 43.06688 | 19.63550 | 36076 ft | 437 kts | 294° |
| 2026-04-23 03:48 | 43.09247 | 19.56017 | 36080 ft | 436 kts | 294° |
| 2026-04-23 03:48 | 43.11800 | 19.48492 | 36072 ft | 436 kts | 294° |
| 2026-04-23 03:49 | 43.14334 | 19.41003 | 36074 ft | 436 kts | 294° |
| 2026-04-23 03:49 | 43.16878 | 19.33461 | 36064 ft | 436 kts | 294° |
| 2026-04-23 03:50 | 43.19414 | 19.25922 | 36063 ft | 436 kts | 294° |
| 2026-04-23 03:50 | 43.21944 | 19.18378 | 36076 ft | 436 kts | 294° |
| 2026-04-23 03:51 | 43.24454 | 19.10872 | 36056 ft | 436 kts | 294° |
| 2026-04-23 03:51 | 43.26979 | 19.03300 | 36067 ft | 436 kts | 294° |
| 2026-04-23 03:52 | 43.29472 | 18.95806 | 36054 ft | 437 kts | 294° |
| 2026-04-23 03:52 | 43.31984 | 18.88238 | 36050 ft | 436 kts | 294° |
| 2026-04-23 03:53 | 43.34488 | 18.80660 | 36046 ft | 436 kts | 294° |
| 2026-04-23 03:53 | 43.36977 | 18.73113 | 36033 ft | 437 kts | 294° |
| 2026-04-23 03:54 | 43.39477 | 18.65509 | 36031 ft | 436 kts | 294° |
| 2026-04-23 03:54 | 43.41971 | 18.57903 | 36049 ft | 436 kts | 294° |
| 2026-04-23 03:55 | 43.44459 | 18.50296 | 36041 ft | 436 kts | 294° |
| 2026-04-23 03:55 | 43.46926 | 18.42732 | 36026 ft | 436 kts | 294° |
| 2026-04-23 03:56 | 43.49405 | 18.35108 | 36034 ft | 436 kts | 294° |
| 2026-04-23 03:56 | 43.51881 | 18.27472 | 36049 ft | 437 kts | 294° |
| 2026-04-23 03:57 | 43.54358 | 18.19807 | 36039 ft | 438 kts | 294° |
| 2026-04-23 03:57 | 43.56821 | 18.12171 | 36037 ft | 440 kts | 294° |
| 2026-04-23 03:58 | 43.59303 | 18.04451 | 36035 ft | 441 kts | 294° |
| 2026-04-23 03:58 | 43.61757 | 17.96787 | 36044 ft | 441 kts | 294° |
| 2026-04-23 03:59 | 43.64232 | 17.89041 | 36039 ft | 440 kts | 294° |
| 2026-04-23 03:59 | 43.66700 | 17.81295 | 36035 ft | 440 kts | 294° |
| 2026-04-23 04:00 | 43.69142 | 17.73606 | 36041 ft | 440 kts | 294° |
| 2026-04-23 04:00 | 43.71591 | 17.65877 | 36058 ft | 438 kts | 294° |
| 2026-04-23 04:01 | 43.74023 | 17.58171 | 36054 ft | 437 kts | 294° |
| 2026-04-23 04:01 | 43.76101 | 17.50274 | 36065 ft | 439 kts | 285° |
| 2026-04-23 04:02 | 43.77571 | 17.42070 | 36057 ft | 439 kts | 285° |
| 2026-04-23 04:02 | 43.79017 | 17.33910 | 36069 ft | 440 kts | 285° |
| 2026-04-23 04:03 | 43.80484 | 17.25679 | 36073 ft | 441 kts | 285° |
| 2026-04-23 04:03 | 43.81957 | 17.17438 | 36077 ft | 441 kts | 285° |
| 2026-04-23 04:04 | 43.83428 | 17.09188 | 36075 ft | 441 kts | 285° |
| 2026-04-23 04:04 | 43.84882 | 17.00991 | 36080 ft | 441 kts | 285° |
| 2026-04-23 04:05 | 43.86327 | 16.92818 | 36079 ft | 441 kts | 285° |
| 2026-04-23 04:05 | 43.87777 | 16.84569 | 36082 ft | 440 kts | 285° |
| 2026-04-23 04:06 | 43.89219 | 16.76326 | 36064 ft | 440 kts | 285° |
| 2026-04-23 04:06 | 43.90647 | 16.68133 | 36063 ft | 440 kts | 285° |
| 2026-04-23 04:07 | 43.92077 | 16.59884 | 36065 ft | 440 kts | 285° |
| 2026-04-23 04:07 | 43.93502 | 16.51630 | 36064 ft | 440 kts | 285° |
| 2026-04-23 04:08 | 43.94924 | 16.43351 | 36065 ft | 441 kts | 285° |
| 2026-04-23 04:08 | 43.96340 | 16.35072 | 36049 ft | 440 kts | 285° |
| 2026-04-23 04:09 | 43.97739 | 16.26853 | 36055 ft | 440 kts | 285° |
| 2026-04-23 04:09 | 43.99140 | 16.18582 | 36054 ft | 440 kts | 285° |
| 2026-04-23 04:10 | 44.00531 | 16.10332 | 36065 ft | 439 kts | 285° |
| 2026-04-23 04:10 | 44.01916 | 16.02074 | 36060 ft | 439 kts | 285° |
| 2026-04-23 04:11 | 44.03274 | 15.93946 | 36075 ft | 439 kts | 285° |
| 2026-04-23 04:11 | 44.04648 | 15.85681 | 36081 ft | 439 kts | 285° |
| 2026-04-23 04:12 | 44.06016 | 15.77413 | 36084 ft | 439 kts | 285° |
| 2026-04-23 04:12 | 44.07378 | 15.69137 | 36083 ft | 439 kts | 285° |
| 2026-04-23 04:13 | 44.08727 | 15.60905 | 36095 ft | 440 kts | 285° |
| 2026-04-23 04:13 | 44.10079 | 15.52613 | 36109 ft | 440 kts | 285° |
| 2026-04-23 04:14 | 44.11427 | 15.44304 | 36101 ft | 440 kts | 285° |
| 2026-04-23 04:14 | 44.12769 | 15.35993 | 36089 ft | 440 kts | 285° |
| 2026-04-23 04:15 | 44.14094 | 15.27742 | 36098 ft | 440 kts | 285° |
| 2026-04-23 04:16 | 44.16081 | 15.15292 | 36104 ft | 439 kts | 285° |
| 2026-04-23 04:16 | 44.17398 | 15.06994 | 36112 ft | 438 kts | 285° |
| 2026-04-23 04:17 | 44.18694 | 14.98781 | 36123 ft | 438 kts | 285° |
| 2026-04-23 04:17 | 44.19988 | 14.90544 | 36124 ft | 438 kts | 285° |
| 2026-04-23 04:18 | 44.21284 | 14.82255 | 36124 ft | 438 kts | 285° |
| 2026-04-23 04:18 | 44.22573 | 14.73966 | 36124 ft | 437 kts | 285° |
| 2026-04-23 04:19 | 44.23855 | 14.65677 | 36130 ft | 437 kts | 284° |
| 2026-04-23 04:19 | 44.25131 | 14.57387 | 36137 ft | 437 kts | 284° |
| 2026-04-23 04:20 | 44.26394 | 14.49140 | 36136 ft | 438 kts | 284° |
| 2026-04-23 04:20 | 44.27659 | 14.40837 | 36154 ft | 438 kts | 284° |
| 2026-04-23 04:21 | 44.28922 | 14.32506 | 36137 ft | 439 kts | 284° |
| 2026-04-23 04:21 | 44.30180 | 14.24157 | 36148 ft | 440 kts | 284° |
| 2026-04-23 04:22 | 44.31435 | 14.15791 | 36153 ft | 440 kts | 284° |
| 2026-04-23 04:22 | 44.32676 | 14.07474 | 36139 ft | 441 kts | 284° |
| 2026-04-23 04:23 | 44.33908 | 13.99166 | 36142 ft | 441 kts | 284° |
| 2026-04-23 04:23 | 44.35146 | 13.90780 | 36143 ft | 440 kts | 284° |
| 2026-04-23 04:24 | 44.36375 | 13.82408 | 36155 ft | 440 kts | 284° |
| 2026-04-23 04:24 | 44.37590 | 13.74088 | 36154 ft | 440 kts | 284° |
| 2026-04-23 04:25 | 44.38805 | 13.65718 | 36161 ft | 439 kts | 284° |
| 2026-04-23 04:25 | 44.40016 | 13.57347 | 36137 ft | 439 kts | 284° |
| 2026-04-23 04:26 | 44.40903 | 13.48920 | 36162 ft | 441 kts | 276° |
| 2026-04-23 04:26 | 44.40697 | 13.40381 | 36166 ft | 445 kts | 268° |
| 2026-04-23 04:27 | 44.39560 | 13.31837 | 36161 ft | 447 kts | 263° |
| 2026-04-23 04:27 | 44.38249 | 13.23364 | 36167 ft | 445 kts | 263° |
| 2026-04-23 04:28 | 44.36317 | 13.10733 | 36167 ft | 441 kts | 264° |
| 2026-04-23 04:28 | 44.35057 | 13.02363 | 36174 ft | 439 kts | 264° |
| 2026-04-23 04:29 | 44.33820 | 12.94160 | 36175 ft | 438 kts | 264° |
| 2026-04-23 04:29 | 44.32560 | 12.85835 | 36177 ft | 438 kts | 264° |
| 2026-04-23 04:30 | 44.31291 | 12.77507 | 36158 ft | 438 kts | 264° |
| 2026-04-23 04:30 | 44.30016 | 12.69186 | 36177 ft | 438 kts | 264° |
| 2026-04-23 04:31 | 44.28734 | 12.60869 | 36170 ft | 438 kts | 264° |
| 2026-04-23 04:31 | 44.27459 | 12.52636 | 36178 ft | 437 kts | 264° |
| 2026-04-23 04:32 | 44.26171 | 12.44369 | 36184 ft | 435 kts | 264° |
| 2026-04-23 04:32 | 44.24881 | 12.36125 | 36190 ft | 434 kts | 264° |
| 2026-04-23 04:33 | 44.23590 | 12.27912 | 36191 ft | 433 kts | 264° |
| 2026-04-23 04:33 | 44.22304 | 12.19769 | 36190 ft | 433 kts | 264° |
| 2026-04-23 04:34 | 44.21004 | 12.11581 | 36175 ft | 433 kts | 264° |
| 2026-04-23 04:34 | 44.19699 | 12.03398 | 36142 ft | 433 kts | 264° |
| 2026-04-23 04:35 | 44.18403 | 11.95317 | 36163 ft | 432 kts | 264° |
| 2026-04-23 04:35 | 44.17098 | 11.87220 | 36166 ft | 431 kts | 264° |
| 2026-04-23 04:36 | 44.15777 | 11.79075 | 36170 ft | 431 kts | 264° |
| 2026-04-23 04:36 | 44.14450 | 11.70938 | 36172 ft | 430 kts | 264° |
| 2026-04-23 04:37 | 44.13127 | 11.62815 | 36151 ft | 430 kts | 264° |
| 2026-04-23 04:37 | 44.11795 | 11.54690 | 36152 ft | 431 kts | 264° |
| 2026-04-23 04:38 | 44.10461 | 11.46621 | 36154 ft | 431 kts | 264° |
| 2026-04-23 04:38 | 44.09114 | 11.38481 | 36137 ft | 432 kts | 264° |
| 2026-04-23 04:39 | 44.07758 | 11.30341 | 36139 ft | 432 kts | 264° |
| 2026-04-23 04:39 | 44.06396 | 11.22206 | 36111 ft | 432 kts | 264° |
| 2026-04-23 04:40 | 44.05032 | 11.14082 | 36121 ft | 432 kts | 263° |
| 2026-04-23 04:40 | 44.03727 | 11.06024 | 36114 ft | 427 kts | 268° |
| 2026-04-23 04:41 | 44.03660 | 10.98001 | 36134 ft | 417 kts | 279° |
| 2026-04-23 04:41 | 44.04785 | 10.90167 | 36151 ft | 412 kts | 289° |
| 2026-04-23 04:42 | 44.06480 | 10.82548 | 36139 ft | 413 kts | 290° |
| 2026-04-23 04:42 | 44.07319 | 10.78775 | 35926 ft | 417 kts | 290° |
| 2026-04-23 04:42 | 44.08176 | 10.74854 | 35295 ft | 422 kts | 290° |
| 2026-04-23 04:43 | 44.09008 | 10.70981 | 34846 ft | 412 kts | 290° |
| 2026-04-23 04:43 | 44.09816 | 10.67198 | 34368 ft | 404 kts | 290° |
| 2026-04-23 04:43 | 44.10607 | 10.63486 | 33807 ft | 397 kts | 290° |
| 2026-04-23 04:43 | 44.11390 | 10.59814 | 32851 ft | 397 kts | 290° |
| 2026-04-23 04:44 | 44.12177 | 10.56119 | 31709 ft | 401 kts | 289° |
| 2026-04-23 04:44 | 44.12975 | 10.52365 | 30848 ft | 402 kts | 289° |
| 2026-04-23 04:44 | 44.13749 | 10.48678 | 30322 ft | 394 kts | 289° |
| 2026-04-23 04:44 | 44.14509 | 10.45099 | 29750 ft | 387 kts | 289° |
| 2026-04-23 04:45 | 44.15264 | 10.41543 | 29248 ft | 379 kts | 289° |
| 2026-04-23 04:45 | 44.16001 | 10.38051 | 28755 ft | 372 kts | 289° |
| 2026-04-23 04:45 | 44.16720 | 10.34630 | 28303 ft | 365 kts | 289° |
| 2026-04-23 04:45 | 44.17421 | 10.31264 | 27836 ft | 360 kts | 289° |
| 2026-04-23 04:46 | 44.18110 | 10.27934 | 27370 ft | 356 kts | 289° |
| 2026-04-23 04:46 | 44.18796 | 10.24610 | 26920 ft | 359 kts | 289° |
| 2026-04-23 04:46 | 44.19498 | 10.21217 | 26486 ft | 370 kts | 289° |
| 2026-04-23 04:46 | 44.20218 | 10.17732 | 25980 ft | 376 kts | 288° |
| 2026-04-23 04:47 | 44.20928 | 10.14280 | 25530 ft | 374 kts | 288° |
| 2026-04-23 04:47 | 44.21749 | 10.10875 | 25057 ft | 367 kts | 294° |
| 2026-04-23 04:47 | 44.22795 | 10.07666 | 24606 ft | 361 kts | 297° |
| 2026-04-23 04:47 | 44.23929 | 10.04568 | 24168 ft | 355 kts | 299° |
| 2026-04-23 04:48 | 44.25174 | 10.01629 | 23707 ft | 350 kts | 303° |
| 2026-04-23 04:48 | 44.26535 | 9.98928 | 23234 ft | 344 kts | 305° |
| 2026-04-23 04:48 | 44.27924 | 9.96236 | 22752 ft | 340 kts | 305° |
| 2026-04-23 04:48 | 44.29302 | 9.93575 | 22328 ft | 337 kts | 305° |
| 2026-04-23 04:49 | 44.30658 | 9.90948 | 21912 ft | 340 kts | 305° |
| 2026-04-23 04:49 | 44.32059 | 9.88222 | 21474 ft | 352 kts | 306° |
| 2026-04-23 04:49 | 44.33504 | 9.85404 | 21034 ft | 360 kts | 306° |
| 2026-04-23 04:49 | 44.34956 | 9.82560 | 20535 ft | 357 kts | 306° |
| 2026-04-23 04:50 | 44.36387 | 9.79753 | 20073 ft | 351 kts | 306° |
| 2026-04-23 04:50 | 44.37788 | 9.76997 | 19670 ft | 344 kts | 306° |
| 2026-04-23 04:50 | 44.39166 | 9.74288 | 19235 ft | 339 kts | 306° |
| 2026-04-23 04:50 | 44.40525 | 9.71614 | 18818 ft | 336 kts | 306° |
| 2026-04-23 04:51 | 44.41877 | 9.68955 | 18382 ft | 336 kts | 306° |
| 2026-04-23 04:51 | 44.43232 | 9.66284 | 17882 ft | 339 kts | 306° |
| 2026-04-23 04:51 | 44.44612 | 9.63563 | 17409 ft | 347 kts | 307° |
| 2026-04-23 04:51 | 44.46097 | 9.60922 | 16948 ft | 352 kts | 311° |
| 2026-04-23 04:52 | 44.47772 | 9.58430 | 16463 ft | 350 kts | 313° |
| 2026-04-23 04:52 | 44.49457 | 9.55993 | 15986 ft | 346 kts | 314° |
| 2026-04-23 04:52 | 44.51122 | 9.53592 | 15548 ft | 342 kts | 314° |
| 2026-04-23 04:52 | 44.52771 | 9.51211 | 15050 ft | 339 kts | 314° |
| 2026-04-23 04:53 | 44.54400 | 9.48850 | 14614 ft | 335 kts | 314° |
| 2026-04-23 04:53 | 44.56016 | 9.46501 | 14152 ft | 334 kts | 314° |
| 2026-04-23 04:53 | 44.57625 | 9.44154 | 13664 ft | 334 kts | 314° |
| 2026-04-23 04:53 | 44.59240 | 9.41799 | 13183 ft | 337 kts | 314° |
| 2026-04-23 04:54 | 44.60857 | 9.39438 | 12721 ft | 345 kts | 314° |
| 2026-04-23 04:54 | 44.62537 | 9.36981 | 12221 ft | 350 kts | 315° |
| 2026-04-23 04:54 | 44.64223 | 9.34513 | 11720 ft | 350 kts | 315° |
| 2026-04-23 04:54 | 44.65896 | 9.32058 | 11228 ft | 346 kts | 315° |
| 2026-04-23 04:55 | 44.67535 | 9.29654 | 11065 ft | 334 kts | 315° |
| 2026-04-23 04:55 | 44.69118 | 9.27328 | 10910 ft | 324 kts | 315° |
| 2026-04-23 04:55 | 44.70652 | 9.25074 | 10769 ft | 314 kts | 315° |
| 2026-04-23 04:55 | 44.72138 | 9.22889 | 10596 ft | 306 kts | 315° |
| 2026-04-23 04:56 | 44.73563 | 9.20791 | 10282 ft | 285 kts | 315° |
| 2026-04-23 04:56 | 44.74879 | 9.18850 | 10158 ft | 273 kts | 315° |
| 2026-04-23 04:56 | 44.76180 | 9.16974 | 10020 ft | 262 kts | 320° |
| 2026-04-23 04:56 | 44.77581 | 9.15420 | 9920 ft | 251 kts | 326° |
| 2026-04-23 04:57 | 44.79006 | 9.14026 | 9717 ft | 252 kts | 327° |
| 2026-04-23 04:57 | 44.80487 | 9.12601 | 9446 ft | 263 kts | 328° |
| 2026-04-23 04:57 | 44.82013 | 9.11120 | 9141 ft | 268 kts | 327° |
| 2026-04-23 04:57 | 44.83543 | 9.09619 | 8794 ft | 268 kts | 328° |
| 2026-04-23 04:58 | 44.85067 | 9.08113 | 8464 ft | 267 kts | 327° |
| 2026-04-23 04:58 | 44.86580 | 9.06610 | 8164 ft | 265 kts | 328° |
| 2026-04-23 04:58 | 44.88064 | 9.05130 | 7840 ft | 265 kts | 327° |
| 2026-04-23 04:58 | 44.89564 | 9.03633 | 7532 ft | 264 kts | 326° |
| 2026-04-23 04:59 | 44.91057 | 9.02138 | 7227 ft | 263 kts | 327° |
| 2026-04-23 04:59 | 44.92545 | 9.00642 | 6926 ft | 262 kts | 327° |
| 2026-04-23 04:59 | 44.94000 | 8.99182 | 6618 ft | 262 kts | 327° |
| 2026-04-23 04:59 | 44.95482 | 8.97693 | 6295 ft | 261 kts | 328° |
| 2026-04-23 05:00 | 44.96958 | 8.96208 | 5987 ft | 260 kts | 327° |
| 2026-04-23 05:00 | 44.98432 | 8.94726 | 5653 ft | 259 kts | 326° |
| 2026-04-23 05:00 | 44.99404 | 8.93746 | 5448 ft | 258 kts | 326° |
| 2026-04-23 05:00 | 45.00837 | 8.92297 | 5346 ft | 249 kts | 327° |
| 2026-04-23 05:01 | 45.02660 | 8.90457 | 5172 ft | 238 kts | 328° |
| 2026-04-23 05:01 | 45.04013 | 8.89130 | 4874 ft | 232 kts | 334° |
| 2026-04-23 05:01 | 45.05462 | 8.88507 | 4842 ft | 215 kts | 355° |
| 2026-04-23 05:01 | 45.06986 | 8.88143 | 4824 ft | 224 kts | 353° |
| 2026-04-23 05:02 | 45.07990 | 8.87872 | 4785 ft | 220 kts | 353° |
| 2026-04-23 05:02 | 45.09942 | 8.87342 | 4679 ft | 207 kts | 353° |
| 2026-04-23 05:02 | 45.11354 | 8.86959 | 4664 ft | 209 kts | 352° |
| 2026-04-23 05:02 | 45.12305 | 8.86702 | 4651 ft | 212 kts | 352° |
| 2026-04-23 05:03 | 45.14243 | 8.86178 | 4587 ft | 214 kts | 352° |
| 2026-04-23 05:03 | 45.15702 | 8.85783 | 4539 ft | 213 kts | 352° |
| 2026-04-23 05:03 | 45.16686 | 8.85517 | 4504 ft | 213 kts | 351° |
| 2026-04-23 05:03 | 45.18115 | 8.85128 | 4454 ft | 212 kts | 352° |
| 2026-04-23 05:04 | 45.19562 | 8.84734 | 4408 ft | 211 kts | 351° |
| 2026-04-23 05:04 | 45.21003 | 8.84465 | 4377 ft | 208 kts | 358° |
| 2026-04-23 05:04 | 45.22455 | 8.84287 | 4351 ft | 210 kts | 357° |
| 2026-04-23 05:04 | 45.23912 | 8.84019 | 4284 ft | 212 kts | 353° |
| 2026-04-23 05:05 | 45.25850 | 8.83560 | 4230 ft | 214 kts | 352° |
| 2026-04-23 05:05 | 45.27315 | 8.83179 | 4174 ft | 214 kts | 351° |
| 2026-04-23 05:05 | 45.28303 | 8.82913 | 4158 ft | 214 kts | 351° |
| 2026-04-23 05:05 | 45.29769 | 8.82516 | 4120 ft | 215 kts | 351° |
| 2026-04-23 05:06 | 45.31218 | 8.82121 | 4056 ft | 215 kts | 351° |
| 2026-04-23 05:06 | 45.32687 | 8.81719 | 3998 ft | 214 kts | 351° |
| 2026-04-23 05:06 | 45.34145 | 8.81320 | 3947 ft | 214 kts | 351° |
| 2026-04-23 05:06 | 45.35604 | 8.80919 | 3907 ft | 213 kts | 352° |
| 2026-04-23 05:07 | 45.37058 | 8.80520 | 3912 ft | 213 kts | 352° |
| 2026-04-23 05:07 | 45.38522 | 8.80118 | 3910 ft | 214 kts | 352° |
| 2026-04-23 05:07 | 45.39946 | 8.79724 | 3953 ft | 205 kts | 351° |
| 2026-04-23 05:07 | 45.41309 | 8.79349 | 3911 ft | 201 kts | 351° |
| 2026-04-23 05:08 | 45.42656 | 8.78980 | 3926 ft | 192 kts | 351° |
| 2026-04-23 05:08 | 45.43922 | 8.78631 | 3918 ft | 179 kts | 351° |
| 2026-04-23 05:08 | 45.45116 | 8.78301 | 3901 ft | 172 kts | 351° |
| 2026-04-23 05:08 | 45.46310 | 8.77974 | 3801 ft | 180 kts | 350° |
| 2026-04-23 05:09 | 45.47534 | 8.77635 | 3553 ft | 177 kts | 351° |
| 2026-04-23 05:09 | 45.49115 | 8.77200 | 3239 ft | 172 kts | 350° |
| 2026-04-23 05:09 | 45.49898 | 8.76984 | 3088 ft | 168 kts | 350° |
| 2026-04-23 05:09 | 45.51363 | 8.76580 | 2828 ft | 159 kts | 350° |
| 2026-04-23 05:10 | 45.52084 | 8.76380 | 2664 ft | 160 kts | 351° |
| 2026-04-23 05:10 | 45.53170 | 8.76079 | 2456 ft | 158 kts | 351° |
| 2026-04-23 05:10 | 45.54253 | 8.75782 | 2238 ft | 158 kts | 351° |
| 2026-04-23 05:10 | 45.55333 | 8.75483 | 2023 ft | 157 kts | 350° |
| 2026-04-23 05:11 | 45.56401 | 8.75187 | 1803 ft | 156 kts | 351° |
| 2026-04-23 05:11 | 45.57467 | 8.74893 | 1564 ft | 155 kts | 351° |
| 2026-04-23 05:11 | 45.58537 | 8.74609 | 1379 ft | 159 kts | 351° |
| 2026-04-23 05:11 | 45.59620 | 8.74292 | 1142 ft | 158 kts | 349° |
| 2026-04-23 05:12 | 45.60663 | 8.73998 | 941 ft | 153 kts | 352° |
| 2026-04-23 05:12 | 45.61720 | 8.73716 | 745 ft | 155 kts | 349° |
| 2026-04-23 05:12 | 45.62726 | 8.73434 | 734 ft | 131 kts | 347° |
| 2026-04-23 05:12 | 45.63284 | 8.73283 | 740 ft | 56 kts | 348° |
| 2026-04-23 05:13 | 45.63502 | 8.73217 | 748 ft | 20 kts | 348° |
| 2026-04-23 05:13 | 45.63630 | 8.73157 | 750 ft | 20 kts | 330° |
| 2026-04-23 05:13 | 45.63740 | 8.73043 | 754 ft | 20 kts | 317° |
| 2026-04-23 05:14 | 45.63904 | 8.72733 | 755 ft | 20 kts | 301° |
| 2026-04-23 05:14 | 45.63953 | 8.72599 | 757 ft | 14 kts | 283° |
| 2026-04-23 05:14 | 45.63947 | 8.72457 | 758 ft | 14 kts | 261° |
| 2026-04-23 05:14 | 45.63927 | 8.72315 | 763 ft | 14 kts | 258° |
| 2026-04-23 05:15 | 45.63910 | 8.72174 | 755 ft | 14 kts | 262° |
| 2026-04-23 05:15 | 45.63905 | 8.72029 | 759 ft | 15 kts | 267° |
| 2026-04-23 05:15 | 45.63901 | 8.71948 | 763 ft | 6 kts | 264° |
| 2026-04-23 05:15 | 45.63881 | 8.71874 | 759 ft | 11 kts | 235° |
| 2026-04-23 05:16 | 45.63813 | 8.71827 | 755 ft | 12 kts | 180° |
| 2026-04-23 05:16 | 45.63728 | 8.71845 | 758 ft | 13 kts | 171° |
| 2026-04-23 05:16 | 45.63634 | 8.71874 | 758 ft | 14 kts | 168° |
| 2026-04-23 05:16 | 45.63532 | 8.71904 | 752 ft | 16 kts | 168° |
| 2026-04-23 05:17 | 45.63423 | 8.71935 | 751 ft | 15 kts | 168° |
| 2026-04-23 05:17 | 45.63355 | 8.71955 | 753 ft | 7 kts | 168° |
| 2026-04-23 05:17 | 45.63318 | 8.71924 | 748 ft | 7 kts | 243° |
| 2026-04-23 05:17 | 45.63304 | 8.71851 | 749 ft | 8 kts | 258° |
| 2026-04-23 05:18 | 45.63293 | 8.71773 | 750 ft | 8 kts | 258° |
| 2026-04-23 05:18 | 45.63282 | 8.71695 | 752 ft | 8 kts | 258° |
| 2026-04-23 05:18 | 45.63270 | 8.71614 | 750 ft | 8 kts | 258° |
| 2026-04-23 05:18 | 45.63258 | 8.71531 | 748 ft | 9 kts | 258° |
| 2026-04-23 05:19 | 45.63250 | 8.71445 | 751 ft | 9 kts | 263° |
| 2026-04-23 05:19 | 45.63241 | 8.71367 | 749 ft | 7 kts | 261° |
| 2026-04-23 05:19 | 45.63214 | 8.71345 | 749 ft | 5 kts | 188° |
| 2026-04-23 05:19 | 45.63171 | 8.71347 | 749 ft | 7 kts | 170° |
| 2026-04-23 05:20 | 45.63154 | 8.71351 | 746 ft | 1 kts | 170° |
| 2026-04-23 05:20 | 45.63152 | 8.71352 | 746 ft | 0 kts | 170° |